Darstellungsparameter: Aktuell verwendete Einstellungen:
Skalierung der Graphiken ... ?
xyx+y,   Skalierungsfaktor:      Skalierung: Modus: x, Faktor: 1
Darstellungszeitraum ... ?
Vom - - bis: - -   Zeitraum: 03.11.2018 - 07.11.2018
Min/Max/Avg-Anzeige ... ?
Zeige MMA aktuell
Zeige MMA Monat
Zeige MMA alles
Zeige --A aktuell
Zeige --A Monat
Zeige --A alles
Keine MMA-Anzeige
MMA:
Keine MMA-Graphiken
MMA-Basis: 03.11.2018 - 07.11.2018
Quicknavigation für Darstellung... ?
Tage:      1T, 2T, 3T, 5T -1T -2T -3T -5T +1T +2T +3T +5T
Wochen: 1W, 2W, 3W -1W -2W -3W +1W +2W +3W
Monate: 1M, 3M, 6M -1M -3M -6M +1M +3M +6M
Jahre:    1J, 3J, 5J, 10J -1J -3J -5J -10J +1J +3J +5J +10J
Nutze für die Darstellung ... ?
Originaldaten oder Mittelwerte auf ...
Stundenbasis Tagesbasis Wochenbasis
Monatsbasis Jahresbasis      Datenbasis: Original-Daten
Darstellen als:
Statistik (Auto) Statistik J:M      Darstellung:
Zur Graphik,    zurück zur Übersicht aller Sensoren.
 
Tabellarische Datenbersicht: ?
 
Sensor: Nr:Datum:Temp:Feuchte:Taupunkt:
Aussen-T/F 1 03-11-2018 00:00:00 4.9 C 95 % 4.17 C
2 03-11-2018 00:05:00 4.9 C 95 % 4.17 C
3 03-11-2018 00:10:00 4.8 C 95 % 4.07 C
4 03-11-2018 00:15:00 4.7 C 95 % 3.97 C
5 03-11-2018 00:20:00 4.6 C 95 % 3.87 C
6 03-11-2018 00:25:00 4.4 C 95 % 3.67 C
7 03-11-2018 00:30:00 4.3 C 95 % 3.57 C
8 03-11-2018 00:35:00 4.3 C 95 % 3.57 C
9 03-11-2018 00:40:00 4.1 C 95 % 3.37 C
10 03-11-2018 00:45:00 4 C 95 % 3.27 C
11 03-11-2018 00:50:00 3.9 C 95 % 3.17 C
12 03-11-2018 00:55:00 3.9 C 96 % 3.32 C
13 03-11-2018 01:00:00 3.8 C 96 % 3.22 C
14 03-11-2018 01:05:00 3.7 C 95 % 2.98 C
15 03-11-2018 01:10:00 3.6 C 95 % 2.88 C
16 03-11-2018 01:15:00 3.5 C 95 % 2.78 C
17 03-11-2018 01:20:00 3.4 C 95 % 2.68 C
18 03-11-2018 01:25:00 3.3 C 95 % 2.58 C
19 03-11-2018 01:30:00 3.2 C 95 % 2.48 C
20 03-11-2018 01:35:00 3.2 C 96 % 2.63 C
21 03-11-2018 01:40:00 3.2 C 96 % 2.63 C
22 03-11-2018 01:45:00 3.2 C 95 % 2.48 C
23 03-11-2018 01:50:00 3.1 C 96 % 2.53 C
24 03-11-2018 01:55:00 3.1 C 96 % 2.53 C
25 03-11-2018 02:00:00 3.1 C 96 % 2.53 C
Sensor: Nr:Datum:Temp:Feuchte:Taupunkt:
Aussen-T/F 26 03-11-2018 02:05:00 3.1 C 96 % 2.53 C
27 03-11-2018 02:10:00 3.1 C 96 % 2.53 C
28 03-11-2018 02:15:00 3 C 96 % 2.43 C
29 03-11-2018 02:20:00 2.9 C 96 % 2.33 C
30 03-11-2018 02:25:00 2.8 C 96 % 2.23 C
31 03-11-2018 02:30:00 2.8 C 95 % 2.08 C
32 03-11-2018 02:35:00 2.6 C 96 % 2.03 C
33 03-11-2018 02:40:00 2.5 C 96 % 1.93 C
34 03-11-2018 02:45:00 2.4 C 95 % 1.68 C
35 03-11-2018 02:50:00 2.4 C 96 % 1.83 C
36 03-11-2018 02:55:00 2.4 C 96 % 1.83 C
37 03-11-2018 03:00:00 2.4 C 96 % 1.83 C
38 03-11-2018 03:05:00 2.4 C 96 % 1.83 C
39 03-11-2018 03:10:00 2.3 C 96 % 1.73 C
40 03-11-2018 03:15:00 2.3 C 96 % 1.73 C
41 03-11-2018 03:20:00 2.2 C 96 % 1.63 C
42 03-11-2018 03:25:00 2.2 C 96 % 1.63 C
43 03-11-2018 03:30:00 2.2 C 96 % 1.63 C
44 03-11-2018 03:35:00 2.3 C 96 % 1.73 C
45 03-11-2018 03:40:00 2.3 C 96 % 1.73 C
46 03-11-2018 03:45:00 2.4 C 96 % 1.83 C
47 03-11-2018 03:50:00 2.4 C 96 % 1.83 C
48 03-11-2018 03:55:00 2.5 C 96 % 1.93 C
49 03-11-2018 04:00:00 2.6 C 96 % 2.03 C
50 03-11-2018 04:05:00 2.7 C 96 % 2.13 C
Sensor: Nr:Datum:Temp:Feuchte:Taupunkt:
Aussen-T/F 51 03-11-2018 04:10:00 2.7 C 96 % 2.13 C
52 03-11-2018 04:15:00 2.7 C 96 % 2.13 C
53 03-11-2018 04:20:00 2.7 C 96 % 2.13 C
54 03-11-2018 04:25:00 2.7 C 96 % 2.13 C
55 03-11-2018 04:30:00 2.7 C 96 % 2.13 C
56 03-11-2018 04:35:00 2.7 C 96 % 2.13 C
57 03-11-2018 04:40:00 2.7 C 96 % 2.13 C
58 03-11-2018 04:45:00 2.8 C 97 % 2.37 C
59 03-11-2018 04:50:00 2.8 C 97 % 2.37 C
60 03-11-2018 04:55:00 2.8 C 97 % 2.37 C
61 03-11-2018 05:00:00 2.8 C 97 % 2.37 C
62 03-11-2018 05:05:00 2.8 C 97 % 2.37 C
63 03-11-2018 05:10:00 2.7 C 96 % 2.13 C
64 03-11-2018 05:15:00 2.7 C 96 % 2.13 C
65 03-11-2018 05:20:00 2.6 C 96 % 2.03 C
66 03-11-2018 05:25:00 2.6 C 96 % 2.03 C
67 03-11-2018 05:30:00 2.6 C 96 % 2.03 C
68 03-11-2018 05:35:00 2.7 C 96 % 2.13 C
69 03-11-2018 05:40:00 2.7 C 96 % 2.13 C
70 03-11-2018 05:45:00 2.7 C 96 % 2.13 C
71 03-11-2018 05:50:00 2.7 C 96 % 2.13 C
72 03-11-2018 05:55:00 2.7 C 96 % 2.13 C
73 03-11-2018 06:00:00 2.7 C 96 % 2.13 C
74 03-11-2018 06:05:00 2.7 C 96 % 2.13 C
75 03-11-2018 06:10:00 2.7 C 96 % 2.13 C
Sensor: Nr:Datum:Temp:Feuchte:Taupunkt:
Aussen-T/F 76 03-11-2018 06:15:00 2.7 C 96 % 2.13 C
77 03-11-2018 06:20:00 2.8 C 97 % 2.37 C
78 03-11-2018 06:25:00 2.8 C 96 % 2.23 C
79 03-11-2018 06:30:00 2.8 C 96 % 2.23 C
80 03-11-2018 06:35:00 2.9 C 97 % 2.47 C
81 03-11-2018 06:40:00 2.9 C 97 % 2.47 C
82 03-11-2018 06:45:00 2.9 C 97 % 2.47 C
83 03-11-2018 06:50:00 2.9 C 97 % 2.47 C
84 03-11-2018 06:55:00 2.9 C 97 % 2.47 C
85 03-11-2018 07:00:00 2.8 C 97 % 2.37 C
86 03-11-2018 07:05:00 2.8 C 97 % 2.37 C
87 03-11-2018 07:10:00 2.8 C 96 % 2.23 C
88 03-11-2018 07:15:00 2.8 C 97 % 2.37 C
89 03-11-2018 07:20:00 2.8 C 97 % 2.37 C
90 03-11-2018 07:25:00 2.8 C 97 % 2.37 C
91 03-11-2018 07:30:00 2.8 C 97 % 2.37 C
92 03-11-2018 07:35:00 2.8 C 97 % 2.37 C
93 03-11-2018 07:40:00 2.8 C 97 % 2.37 C
94 03-11-2018 07:45:00 2.8 C 97 % 2.37 C
95 03-11-2018 07:50:00 2.8 C 97 % 2.37 C
96 03-11-2018 07:55:00 2.8 C 97 % 2.37 C
97 03-11-2018 08:00:00 2.9 C 97 % 2.47 C
98 03-11-2018 08:05:00 2.9 C 97 % 2.47 C
99 03-11-2018 08:10:00 2.9 C 97 % 2.47 C
100 03-11-2018 08:15:00 2.9 C 97 % 2.47 C
Sensor: Nr:Datum:Temp:Feuchte:Taupunkt:
Aussen-T/F 101 03-11-2018 08:20:00 3 C 97 % 2.57 C
102 03-11-2018 08:25:00 3.1 C 97 % 2.67 C
103 03-11-2018 08:30:00 3.1 C 97 % 2.67 C
104 03-11-2018 08:35:00 3.1 C 97 % 2.67 C
105 03-11-2018 08:40:00 3.1 C 97 % 2.67 C
106 03-11-2018 08:45:00 3.1 C 97 % 2.67 C
107 03-11-2018 08:50:00 3.2 C 97 % 2.77 C
108 03-11-2018 08:55:00 3.2 C 97 % 2.77 C
109 03-11-2018 09:00:00 3.2 C 97 % 2.77 C
110 03-11-2018 09:05:00 3.2 C 97 % 2.77 C
111 03-11-2018 09:10:00 3.2 C 97 % 2.77 C
112 03-11-2018 09:15:00 3.2 C 97 % 2.77 C
113 03-11-2018 09:20:00 3.2 C 97 % 2.77 C
114 03-11-2018 09:25:00 3.2 C 97 % 2.77 C
115 03-11-2018 09:30:00 3.2 C 97 % 2.77 C
116 03-11-2018 09:35:00 3.3 C 97 % 2.87 C
117 03-11-2018 09:40:00 3.3 C 97 % 2.87 C
118 03-11-2018 09:45:00 3.3 C 97 % 2.87 C
119 03-11-2018 09:50:00 3.4 C 97 % 2.97 C
120 03-11-2018 09:55:00 3.4 C 97 % 2.97 C
121 03-11-2018 10:00:00 3.4 C 97 % 2.97 C
122 03-11-2018 10:05:00 3.4 C 97 % 2.97 C
123 03-11-2018 10:10:00 3.5 C 97 % 3.07 C
124 03-11-2018 10:15:00 3.6 C 97 % 3.17 C
125 03-11-2018 10:20:00 3.6 C 97 % 3.17 C
Sensor: Nr:Datum:Temp:Feuchte:Taupunkt:
Aussen-T/F 126 03-11-2018 10:25:00 3.6 C 97 % 3.17 C
127 03-11-2018 10:30:00 3.7 C 97 % 3.27 C
128 03-11-2018 10:35:00 3.7 C 97 % 3.27 C
129 03-11-2018 10:40:00 3.8 C 97 % 3.37 C
130 03-11-2018 10:45:00 3.8 C 97 % 3.37 C
131 03-11-2018 10:50:00 3.9 C 97 % 3.47 C
132 03-11-2018 10:55:00 3.9 C 97 % 3.47 C
133 03-11-2018 11:00:00 3.8 C 97 % 3.37 C
134 03-11-2018 11:05:00 3.8 C 97 % 3.37 C
135 03-11-2018 11:10:00 3.9 C 97 % 3.47 C
136 03-11-2018 11:15:00 3.9 C 97 % 3.47 C
137 03-11-2018 11:20:00 3.9 C 97 % 3.47 C
138 03-11-2018 11:25:00 3.9 C 97 % 3.47 C
139 03-11-2018 11:30:00 3.9 C 97 % 3.47 C
140 03-11-2018 11:35:00 4 C 97 % 3.57 C
141 03-11-2018 11:40:00 4 C 97 % 3.57 C
142 03-11-2018 11:45:00 4.1 C 97 % 3.67 C
143 03-11-2018 11:50:00 4.1 C 97 % 3.67 C
144 03-11-2018 11:55:00 4.2 C 97 % 3.77 C
145 03-11-2018 12:00:00 4.2 C 97 % 3.77 C
146 03-11-2018 12:05:00 4.2 C 97 % 3.77 C
147 03-11-2018 12:10:00 4.3 C 97 % 3.87 C
148 03-11-2018 12:15:00 4.3 C 97 % 3.87 C
149 03-11-2018 12:20:00 4.4 C 97 % 3.97 C
150 03-11-2018 12:25:00 4.6 C 97 % 4.17 C
Sensor: Nr:Datum:Temp:Feuchte:Taupunkt:
Aussen-T/F 151 03-11-2018 12:30:00 4.6 C 97 % 4.17 C
152 03-11-2018 12:35:00 4.7 C 97 % 4.27 C
153 03-11-2018 12:40:00 4.7 C 97 % 4.27 C
154 03-11-2018 12:45:00 4.7 C 97 % 4.27 C
155 03-11-2018 12:50:00 4.7 C 97 % 4.27 C
156 03-11-2018 12:55:00 4.8 C 97 % 4.37 C
157 03-11-2018 13:00:00 4.8 C 97 % 4.37 C
158 03-11-2018 13:05:00 4.8 C 97 % 4.37 C
159 03-11-2018 13:10:00 4.8 C 97 % 4.37 C
160 03-11-2018 13:15:00 4.9 C 97 % 4.46 C
161 03-11-2018 13:20:00 4.9 C 97 % 4.46 C
162 03-11-2018 13:25:00 4.8 C 97 % 4.37 C
163 03-11-2018 13:30:00 4.8 C 97 % 4.37 C
164 03-11-2018 13:35:00 4.9 C 97 % 4.46 C
165 03-11-2018 13:40:00 5.1 C 97 % 4.66 C
166 03-11-2018 13:45:00 5.1 C 97 % 4.66 C
167 03-11-2018 13:50:00 5.2 C 97 % 4.76 C
168 03-11-2018 13:55:00 5.3 C 97 % 4.86 C
169 03-11-2018 14:00:00 5.3 C 97 % 4.86 C
170 03-11-2018 14:05:00 5.3 C 97 % 4.86 C
171 03-11-2018 14:10:00 5.3 C 97 % 4.86 C
172 03-11-2018 14:15:00 5.3 C 97 % 4.86 C
173 03-11-2018 14:20:00 5.2 C 97 % 4.76 C
174 03-11-2018 14:25:00 5.2 C 97 % 4.76 C
175 03-11-2018 14:30:00 5.3 C 97 % 4.86 C
Sensor: Nr:Datum:Temp:Feuchte:Taupunkt:
Aussen-T/F 176 03-11-2018 14:35:00 5.3 C 97 % 4.86 C
177 03-11-2018 14:40:00 5.3 C 97 % 4.86 C
178 03-11-2018 14:45:00 5.3 C 97 % 4.86 C
179 03-11-2018 14:50:00 5.3 C 97 % 4.86 C
180 03-11-2018 14:55:00 5.3 C 97 % 4.86 C
181 03-11-2018 15:00:00 5.2 C 97 % 4.76 C
182 03-11-2018 15:05:00 5.1 C 97 % 4.66 C
183 03-11-2018 15:10:00 5.1 C 97 % 4.66 C
184 03-11-2018 15:15:00 5.1 C 97 % 4.66 C
185 03-11-2018 15:20:00 5.1 C 97 % 4.66 C
186 03-11-2018 15:25:00 5.1 C 97 % 4.66 C
187 03-11-2018 15:30:00 5.1 C 97 % 4.66 C
188 03-11-2018 15:35:00 5 C 97 % 4.56 C
189 03-11-2018 15:40:00 5.1 C 97 % 4.66 C
190 03-11-2018 15:45:00 5.1 C 97 % 4.66 C
191 03-11-2018 15:50:00 5.1 C 96 % 4.52 C
192 03-11-2018 15:55:00 5 C 96 % 4.42 C
193 03-11-2018 16:00:00 5 C 97 % 4.56 C
194 03-11-2018 16:05:00 5 C 97 % 4.56 C
195 03-11-2018 16:10:00 4.9 C 96 % 4.32 C
196 03-11-2018 16:15:00 4.9 C 96 % 4.32 C
197 03-11-2018 16:20:00 4.8 C 96 % 4.22 C
198 03-11-2018 16:25:00 4.8 C 96 % 4.22 C
199 03-11-2018 16:30:00 4.8 C 96 % 4.22 C
200 03-11-2018 16:35:00 4.8 C 96 % 4.22 C
Sensor: Nr:Datum:Temp:Feuchte:Taupunkt:
Aussen-T/F 201 03-11-2018 16:40:00 4.8 C 96 % 4.22 C
202 03-11-2018 16:45:00 4.8 C 96 % 4.22 C
203 03-11-2018 16:50:00 4.7 C 96 % 4.12 C
204 03-11-2018 16:55:00 4.7 C 96 % 4.12 C
205 03-11-2018 17:00:00 4.7 C 96 % 4.12 C
206 03-11-2018 17:05:00 4.6 C 96 % 4.02 C
207 03-11-2018 17:10:00 4.6 C 96 % 4.02 C
208 03-11-2018 17:15:00 4.5 C 96 % 3.92 C
209 03-11-2018 17:20:00 4.4 C 96 % 3.82 C
210 03-11-2018 17:25:00 4.3 C 96 % 3.72 C
211 03-11-2018 17:30:00 4.3 C 96 % 3.72 C
212 03-11-2018 17:35:00 4.2 C 96 % 3.62 C
213 03-11-2018 17:40:00 4.1 C 96 % 3.52 C
214 03-11-2018 17:45:00 4.1 C 96 % 3.52 C
215 03-11-2018 17:50:00 3.9 C 96 % 3.32 C
216 03-11-2018 17:55:00 3.9 C 96 % 3.32 C
217 03-11-2018 18:00:00 3.8 C 96 % 3.22 C
218 03-11-2018 18:05:00 3.9 C 96 % 3.32 C
219 03-11-2018 18:10:00 3.8 C 96 % 3.22 C
220 03-11-2018 18:15:00 3.8 C 96 % 3.22 C
221 03-11-2018 18:20:00 3.8 C 96 % 3.22 C
222 03-11-2018 18:25:00 3.8 C 96 % 3.22 C
223 03-11-2018 18:30:00 3.8 C 96 % 3.22 C
224 03-11-2018 18:35:00 3.7 C 96 % 3.12 C
225 03-11-2018 18:40:00 3.6 C 96 % 3.02 C
Sensor: Nr:Datum:Temp:Feuchte:Taupunkt:
Aussen-T/F 226 03-11-2018 18:45:00 3.5 C 96 % 2.92 C
227 03-11-2018 18:50:00 3.3 C 96 % 2.72 C
228 03-11-2018 18:55:00 3.2 C 96 % 2.63 C
229 03-11-2018 19:00:00 3.1 C 96 % 2.53 C
230 03-11-2018 19:05:00 3 C 96 % 2.43 C
231 03-11-2018 19:10:00 3 C 96 % 2.43 C
232 03-11-2018 19:15:00 2.9 C 96 % 2.33 C
233 03-11-2018 19:20:00 2.9 C 96 % 2.33 C
234 03-11-2018 19:25:00 2.8 C 96 % 2.23 C
235 03-11-2018 19:30:00 2.7 C 96 % 2.13 C
236 03-11-2018 19:35:00 2.7 C 96 % 2.13 C
237 03-11-2018 19:40:00 2.7 C 96 % 2.13 C
238 03-11-2018 19:45:00 2.7 C 96 % 2.13 C
239 03-11-2018 19:50:00 2.8 C 96 % 2.23 C
240 03-11-2018 19:55:00 2.8 C 96 % 2.23 C
241 03-11-2018 20:00:00 2.8 C 96 % 2.23 C
242 03-11-2018 20:05:00 2.8 C 96 % 2.23 C
243 03-11-2018 20:10:00 2.8 C 97 % 2.37 C
244 03-11-2018 20:15:00 2.9 C 97 % 2.47 C
245 03-11-2018 20:20:00 2.9 C 97 % 2.47 C
246 03-11-2018 20:25:00 2.8 C 97 % 2.37 C
247 03-11-2018 20:30:00 2.8 C 96 % 2.23 C
248 03-11-2018 20:35:00 2.8 C 96 % 2.23 C
249 03-11-2018 20:40:00 2.7 C 96 % 2.13 C
250 03-11-2018 20:45:00 2.7 C 96 % 2.13 C
Sensor: Nr:Datum:Temp:Feuchte:Taupunkt:
Aussen-T/F 251 03-11-2018 20:50:00 2.7 C 96 % 2.13 C
252 03-11-2018 20:55:00 2.7 C 96 % 2.13 C
253 03-11-2018 21:00:00 2.7 C 97 % 2.27 C
254 03-11-2018 21:05:00 2.7 C 96 % 2.13 C
255 03-11-2018 21:10:00 2.8 C 97 % 2.37 C
256 03-11-2018 21:15:00 2.8 C 97 % 2.37 C
257 03-11-2018 21:20:00 2.8 C 96 % 2.23 C
258 03-11-2018 21:25:00 2.8 C 96 % 2.23 C
259 03-11-2018 21:30:00 2.8 C 96 % 2.23 C
260 03-11-2018 21:35:00 2.8 C 97 % 2.37 C
261 03-11-2018 21:40:00 2.8 C 97 % 2.37 C
262 03-11-2018 21:45:00 2.7 C 96 % 2.13 C
263 03-11-2018 21:50:00 2.7 C 96 % 2.13 C
264 03-11-2018 21:55:00 2.7 C 96 % 2.13 C
265 03-11-2018 22:00:00 2.7 C 97 % 2.27 C
266 03-11-2018 22:05:00 2.7 C 97 % 2.27 C
267 03-11-2018 22:10:00 2.7 C 97 % 2.27 C
268 03-11-2018 22:15:00 2.7 C 97 % 2.27 C
269 03-11-2018 22:20:00 2.7 C 97 % 2.27 C
270 03-11-2018 22:25:00 2.7 C 97 % 2.27 C
271 03-11-2018 22:30:00 2.7 C 97 % 2.27 C
272 03-11-2018 22:35:00 2.7 C 97 % 2.27 C
273 03-11-2018 22:40:00 2.6 C 97 % 2.17 C
274 03-11-2018 22:45:00 2.6 C 97 % 2.17 C
275 03-11-2018 22:50:00 2.6 C 97 % 2.17 C
Sensor: Nr:Datum:Temp:Feuchte:Taupunkt:
Aussen-T/F 276 03-11-2018 22:55:00 2.6 C 97 % 2.17 C
277 03-11-2018 23:00:00 2.6 C 97 % 2.17 C
278 03-11-2018 23:05:00 2.7 C 97 % 2.27 C
279 03-11-2018 23:10:00 2.7 C 97 % 2.27 C
280 03-11-2018 23:15:00 2.7 C 97 % 2.27 C
281 03-11-2018 23:20:00 2.7 C 97 % 2.27 C
282 03-11-2018 23:25:00 2.7 C 97 % 2.27 C
283 03-11-2018 23:30:00 2.7 C 97 % 2.27 C
284 03-11-2018 23:35:00 2.7 C 97 % 2.27 C
285 03-11-2018 23:40:00 2.6 C 97 % 2.17 C
286 03-11-2018 23:45:00 2.6 C 97 % 2.17 C
287 03-11-2018 23:50:00 2.6 C 97 % 2.17 C
288 03-11-2018 23:55:00 2.6 C 97 % 2.17 C
289 04-11-2018 00:00:00 2.6 C 97 % 2.17 C
290 04-11-2018 00:05:00 2.6 C 97 % 2.17 C
291 04-11-2018 00:10:00 2.6 C 97 % 2.17 C
292 04-11-2018 00:15:00 2.6 C 97 % 2.17 C
293 04-11-2018 00:20:00 2.6 C 97 % 2.17 C
294 04-11-2018 00:25:00 2.6 C 97 % 2.17 C
295 04-11-2018 00:30:00 2.6 C 97 % 2.17 C
296 04-11-2018 00:35:00 2.6 C 97 % 2.17 C
297 04-11-2018 00:40:00 2.6 C 97 % 2.17 C
298 04-11-2018 00:45:00 2.6 C 97 % 2.17 C
299 04-11-2018 00:50:00 2.7 C 97 % 2.27 C
300 04-11-2018 00:55:00 2.7 C 97 % 2.27 C
Sensor: Nr:Datum:Temp:Feuchte:Taupunkt:
Aussen-T/F 301 04-11-2018 01:00:00 2.7 C 97 % 2.27 C
302 04-11-2018 01:05:00 2.8 C 97 % 2.37 C
303 04-11-2018 01:10:00 2.8 C 97 % 2.37 C
304 04-11-2018 01:15:00 2.8 C 97 % 2.37 C
305 04-11-2018 01:20:00 2.9 C 97 % 2.47 C
306 04-11-2018 01:25:00 2.9 C 97 % 2.47 C
307 04-11-2018 01:30:00 2.9 C 97 % 2.47 C
308 04-11-2018 01:35:00 2.9 C 97 % 2.47 C
309 04-11-2018 01:40:00 2.9 C 97 % 2.47 C
310 04-11-2018 01:45:00 3 C 97 % 2.57 C
311 04-11-2018 01:50:00 3 C 97 % 2.57 C
312 04-11-2018 01:55:00 3.1 C 97 % 2.67 C
313 04-11-2018 02:00:00 3.1 C 97 % 2.67 C
314 04-11-2018 02:05:00 3.1 C 97 % 2.67 C
315 04-11-2018 02:10:00 3.1 C 97 % 2.67 C
316 04-11-2018 02:15:00 3.2 C 97 % 2.77 C
317 04-11-2018 02:20:00 3.2 C 97 % 2.77 C
318 04-11-2018 02:25:00 3.2 C 97 % 2.77 C
319 04-11-2018 02:30:00 3.2 C 97 % 2.77 C
320 04-11-2018 02:35:00 3.2 C 97 % 2.77 C
321 04-11-2018 02:40:00 3.3 C 97 % 2.87 C
322 04-11-2018 02:45:00 3.3 C 97 % 2.87 C
323 04-11-2018 02:50:00 3.3 C 97 % 2.87 C
324 04-11-2018 02:55:00 3.3 C 97 % 2.87 C
325 04-11-2018 03:00:00 3.3 C 97 % 2.87 C
Sensor: Nr:Datum:Temp:Feuchte:Taupunkt:
Aussen-T/F 326 04-11-2018 03:05:00 3.3 C 97 % 2.87 C
327 04-11-2018 03:10:00 3.3 C 97 % 2.87 C
328 04-11-2018 03:15:00 3.4 C 97 % 2.97 C
329 04-11-2018 03:20:00 3.4 C 97 % 2.97 C
330 04-11-2018 03:25:00 3.5 C 97 % 3.07 C
331 04-11-2018 03:30:00 3.5 C 97 % 3.07 C
332 04-11-2018 03:35:00 3.6 C 97 % 3.17 C
333 04-11-2018 03:40:00 3.6 C 97 % 3.17 C
334 04-11-2018 03:45:00 3.6 C 97 % 3.17 C
335 04-11-2018 03:50:00 3.6 C 97 % 3.17 C
336 04-11-2018 03:55:00 3.6 C 97 % 3.17 C
337 04-11-2018 04:00:00 3.7 C 97 % 3.27 C
338 04-11-2018 04:05:00 3.7 C 97 % 3.27 C
339 04-11-2018 04:10:00 3.7 C 97 % 3.27 C
340 04-11-2018 04:15:00 3.7 C 97 % 3.27 C
341 04-11-2018 04:20:00 3.7 C 97 % 3.27 C
342 04-11-2018 04:25:00 3.7 C 97 % 3.27 C
343 04-11-2018 04:30:00 3.8 C 97 % 3.37 C
344 04-11-2018 04:35:00 3.8 C 97 % 3.37 C
345 04-11-2018 04:40:00 3.8 C 97 % 3.37 C
346 04-11-2018 04:45:00 3.8 C 97 % 3.37 C
347 04-11-2018 04:50:00 3.9 C 97 % 3.47 C
348 04-11-2018 04:55:00 3.9 C 97 % 3.47 C
349 04-11-2018 05:00:00 3.9 C 97 % 3.47 C
350 04-11-2018 05:05:00 3.9 C 97 % 3.47 C
Sensor: Nr:Datum:Temp:Feuchte:Taupunkt:
Aussen-T/F 351 04-11-2018 05:10:00 3.9 C 97 % 3.47 C
352 04-11-2018 05:15:00 3.9 C 97 % 3.47 C
353 04-11-2018 05:20:00 4 C 97 % 3.57 C
354 04-11-2018 05:25:00 4 C 97 % 3.57 C
355 04-11-2018 05:30:00 4.1 C 97 % 3.67 C
356 04-11-2018 05:35:00 4.1 C 97 % 3.67 C
357 04-11-2018 05:40:00 4.1 C 97 % 3.67 C
358 04-11-2018 05:45:00 4.1 C 97 % 3.67 C
359 04-11-2018 05:50:00 4.1 C 97 % 3.67 C
360 04-11-2018 05:55:00 4.1 C 97 % 3.67 C
361 04-11-2018 06:00:00 4.2 C 97 % 3.77 C
362 04-11-2018 06:05:00 4.2 C 97 % 3.77 C
363 04-11-2018 06:10:00 4.2 C 97 % 3.77 C
364 04-11-2018 06:15:00 4.2 C 97 % 3.77 C
365 04-11-2018 06:20:00 4.2 C 97 % 3.77 C
366 04-11-2018 06:25:00 4.2 C 97 % 3.77 C
367 04-11-2018 06:30:00 4.2 C 97 % 3.77 C
368 04-11-2018 06:35:00 4.2 C 97 % 3.77 C
369 04-11-2018 06:40:00 4.2 C 97 % 3.77 C
370 04-11-2018 06:45:00 4.2 C 97 % 3.77 C
371 04-11-2018 06:50:00 4.2 C 97 % 3.77 C
372 04-11-2018 06:55:00 4.2 C 97 % 3.77 C
373 04-11-2018 07:00:00 4.3 C 97 % 3.87 C
374 04-11-2018 07:05:00 4.3 C 97 % 3.87 C
375 04-11-2018 07:10:00 4.3 C 97 % 3.87 C
Sensor: Nr:Datum:Temp:Feuchte:Taupunkt:
Aussen-T/F 376 04-11-2018 07:15:00 4.3 C 97 % 3.87 C
377 04-11-2018 07:20:00 4.3 C 97 % 3.87 C
378 04-11-2018 07:25:00 4.4 C 97 % 3.97 C
379 04-11-2018 07:30:00 4.4 C 97 % 3.97 C
380 04-11-2018 07:35:00 4.4 C 97 % 3.97 C
381 04-11-2018 07:40:00 4.5 C 97 % 4.07 C
382 04-11-2018 07:45:00 4.5 C 97 % 4.07 C
383 04-11-2018 07:50:00 4.6 C 97 % 4.17 C
384 04-11-2018 07:55:00 4.6 C 97 % 4.17 C
385 04-11-2018 08:00:00 4.6 C 97 % 4.17 C
386 04-11-2018 08:05:00 4.6 C 97 % 4.17 C
387 04-11-2018 08:10:00 4.7 C 97 % 4.27 C
388 04-11-2018 08:15:00 4.7 C 97 % 4.27 C
389 04-11-2018 08:20:00 4.7 C 97 % 4.27 C
390 04-11-2018 08:25:00 4.7 C 97 % 4.27 C
391 04-11-2018 08:30:00 4.7 C 97 % 4.27 C
392 04-11-2018 08:35:00 4.7 C 97 % 4.27 C
393 04-11-2018 08:40:00 4.8 C 97 % 4.37 C
394 04-11-2018 08:45:00 4.8 C 97 % 4.37 C
395 04-11-2018 08:50:00 4.8 C 97 % 4.37 C
396 04-11-2018 08:55:00 4.8 C 97 % 4.37 C
397 04-11-2018 09:00:00 4.9 C 97 % 4.46 C
398 04-11-2018 09:05:00 4.9 C 97 % 4.46 C
399 04-11-2018 09:10:00 4.9 C 97 % 4.46 C
400 04-11-2018 09:15:00 5 C 97 % 4.56 C
Sensor: Nr:Datum:Temp:Feuchte:Taupunkt:
Aussen-T/F 401 04-11-2018 09:20:00 5.1 C 97 % 4.66 C
402 04-11-2018 09:25:00 5.1 C 97 % 4.66 C
403 04-11-2018 09:30:00 5.1 C 97 % 4.66 C
404 04-11-2018 09:35:00 5.2 C 97 % 4.76 C
405 04-11-2018 09:40:00 5.3 C 97 % 4.86 C
406 04-11-2018 09:45:00 5.3 C 97 % 4.86 C
407 04-11-2018 09:50:00 5.4 C 97 % 4.96 C
408 04-11-2018 09:55:00 5.5 C 97 % 5.06 C
409 04-11-2018 10:00:00 5.6 C 97 % 5.16 C
410 04-11-2018 10:05:00 5.7 C 97 % 5.26 C
411 04-11-2018 10:10:00 5.7 C 97 % 5.26 C
412 04-11-2018 10:15:00 5.8 C 97 % 5.36 C
413 04-11-2018 10:20:00 5.8 C 97 % 5.36 C
414 04-11-2018 10:25:00 5.8 C 97 % 5.36 C
415 04-11-2018 10:30:00 5.9 C 97 % 5.46 C
416 04-11-2018 10:35:00 5.9 C 97 % 5.46 C
417 04-11-2018 10:40:00 5.9 C 97 % 5.46 C
418 04-11-2018 10:45:00 6.1 C 97 % 5.66 C
419 04-11-2018 10:50:00 6.1 C 97 % 5.66 C
420 04-11-2018 10:55:00 6.2 C 97 % 5.76 C
421 04-11-2018 11:00:00 6.3 C 97 % 5.86 C
422 04-11-2018 11:05:00 6.4 C 97 % 5.96 C
423 04-11-2018 11:10:00 6.5 C 97 % 6.06 C
424 04-11-2018 11:15:00 6.6 C 97 % 6.16 C
425 04-11-2018 11:20:00 6.6 C 96 % 6.01 C
Sensor: Nr:Datum:Temp:Feuchte:Taupunkt:
Aussen-T/F 426 04-11-2018 11:25:00 6.7 C 96 % 6.11 C
427 04-11-2018 11:30:00 6.8 C 96 % 6.21 C
428 04-11-2018 11:35:00 6.8 C 96 % 6.21 C
429 04-11-2018 11:40:00 6.9 C 96 % 6.31 C
430 04-11-2018 11:45:00 7 C 96 % 6.41 C
431 04-11-2018 11:50:00 7.1 C 96 % 6.51 C
432 04-11-2018 11:55:00 7.2 C 95 % 6.45 C
433 04-11-2018 12:00:00 7.2 C 95 % 6.45 C
434 04-11-2018 12:05:00 7.3 C 95 % 6.55 C
435 04-11-2018 12:10:00 7.3 C 95 % 6.55 C
436 04-11-2018 12:15:00 7.4 C 95 % 6.65 C
437 04-11-2018 12:20:00 7.5 C 95 % 6.75 C
438 04-11-2018 12:25:00 7.6 C 94 % 6.7 C
439 04-11-2018 12:30:00 7.6 C 94 % 6.7 C
440 04-11-2018 12:35:00 7.7 C 94 % 6.8 C
441 04-11-2018 12:40:00 7.8 C 94 % 6.9 C
442 04-11-2018 12:45:00 7.8 C 94 % 6.9 C
443 04-11-2018 12:50:00 7.9 C 93 % 6.84 C
444 04-11-2018 12:55:00 7.9 C 93 % 6.84 C
445 04-11-2018 13:00:00 7.9 C 93 % 6.84 C
446 04-11-2018 13:05:00 8 C 93 % 6.94 C
447 04-11-2018 13:10:00 8.1 C 93 % 7.04 C
448 04-11-2018 13:15:00 8.1 C 93 % 7.04 C
449 04-11-2018 13:20:00 8.2 C 93 % 7.14 C
450 04-11-2018 13:25:00 8.3 C 93 % 7.24 C
Sensor: Nr:Datum:Temp:Feuchte:Taupunkt:
Aussen-T/F 451 04-11-2018 13:30:00 8.3 C 93 % 7.24 C
452 04-11-2018 13:35:00 8.4 C 92 % 7.18 C
453 04-11-2018 13:40:00 8.6 C 92 % 7.38 C
454 04-11-2018 13:45:00 8.6 C 92 % 7.38 C
455 04-11-2018 13:50:00 8.7 C 92 % 7.47 C
456 04-11-2018 13:55:00 8.8 C 91 % 7.41 C
457 04-11-2018 14:00:00 8.8 C 91 % 7.41 C
458 04-11-2018 14:05:00 8.9 C 91 % 7.51 C
459 04-11-2018 14:10:00 9 C 91 % 7.61 C
460 04-11-2018 14:15:00 9.1 C 91 % 7.71 C
461 04-11-2018 14:20:00 9.1 C 91 % 7.71 C
462 04-11-2018 14:25:00 9.2 C 91 % 7.81 C
463 04-11-2018 14:30:00 9.2 C 91 % 7.81 C
464 04-11-2018 14:35:00 9.3 C 91 % 7.91 C
465 04-11-2018 14:40:00 9.3 C 91 % 7.91 C
466 04-11-2018 14:45:00 9.4 C 90 % 7.85 C
467 04-11-2018 14:50:00 9.4 C 90 % 7.85 C
468 04-11-2018 14:55:00 9.5 C 91 % 8.11 C
469 04-11-2018 15:00:00 9.6 C 91 % 8.21 C
470 04-11-2018 15:05:00 9.7 C 91 % 8.3 C
471 04-11-2018 15:10:00 9.8 C 91 % 8.4 C
472 04-11-2018 15:15:00 9.8 C 91 % 8.4 C
473 04-11-2018 15:20:00 9.9 C 91 % 8.5 C
474 04-11-2018 15:25:00 10 C 91 % 8.6 C
475 04-11-2018 15:30:00 10.1 C 91 % 8.7 C
Sensor: Nr:Datum:Temp:Feuchte:Taupunkt:
Aussen-T/F 476 04-11-2018 15:35:00 10.1 C 90 % 8.54 C
477 04-11-2018 15:40:00 10.1 C 90 % 8.54 C
478 04-11-2018 15:45:00 10.1 C 90 % 8.54 C
479 04-11-2018 15:50:00 10.1 C 90 % 8.54 C
480 04-11-2018 15:55:00 10.1 C 90 % 8.54 C
481 04-11-2018 16:00:00 10.1 C 91 % 8.7 C
482 04-11-2018 16:05:00 10.1 C 91 % 8.7 C
483 04-11-2018 16:10:00 10.1 C 91 % 8.7 C
484 04-11-2018 16:15:00 10.2 C 91 % 8.8 C
485 04-11-2018 16:20:00 10.2 C 92 % 8.96 C
486 04-11-2018 16:25:00 10.2 C 92 % 8.96 C
487 04-11-2018 16:30:00 10.2 C 92 % 8.96 C
488 04-11-2018 16:35:00 10.2 C 92 % 8.96 C
489 04-11-2018 16:40:00 10.2 C 92 % 8.96 C
490 04-11-2018 16:45:00 10.2 C 92 % 8.96 C
491 04-11-2018 16:50:00 10.1 C 93 % 9.02 C
492 04-11-2018 16:55:00 10.1 C 93 % 9.02 C
493 04-11-2018 17:00:00 10.1 C 93 % 9.02 C
494 04-11-2018 17:05:00 10 C 93 % 8.92 C
495 04-11-2018 17:10:00 9.9 C 93 % 8.82 C
496 04-11-2018 17:15:00 9.9 C 93 % 8.82 C
497 04-11-2018 17:20:00 9.9 C 93 % 8.82 C
498 04-11-2018 17:25:00 9.8 C 93 % 8.72 C
499 04-11-2018 17:30:00 9.8 C 94 % 8.88 C
500 04-11-2018 17:35:00 9.8 C 94 % 8.88 C
Sensor: Nr:Datum:Temp:Feuchte:Taupunkt:
Aussen-T/F 501 04-11-2018 17:40:00 9.8 C 94 % 8.88 C
502 04-11-2018 17:45:00 9.8 C 94 % 8.88 C
503 04-11-2018 17:50:00 9.8 C 94 % 8.88 C
504 04-11-2018 17:55:00 9.7 C 94 % 8.78 C
505 04-11-2018 18:00:00 9.7 C 94 % 8.78 C
506 04-11-2018 18:05:00 9.7 C 94 % 8.78 C
507 04-11-2018 18:10:00 9.7 C 94 % 8.78 C
508 04-11-2018 18:15:00 9.7 C 94 % 8.78 C
509 04-11-2018 18:20:00 9.7 C 94 % 8.78 C
510 04-11-2018 18:25:00 9.7 C 94 % 8.78 C
511 04-11-2018 18:30:00 9.7 C 94 % 8.78 C
512 04-11-2018 18:35:00 9.7 C 94 % 8.78 C
513 04-11-2018 18:40:00 9.7 C 94 % 8.78 C
514 04-11-2018 18:45:00 9.7 C 94 % 8.78 C
515 04-11-2018 18:50:00 9.7 C 94 % 8.78 C
516 04-11-2018 18:55:00 9.7 C 94 % 8.78 C
517 04-11-2018 19:00:00 9.7 C 94 % 8.78 C
518 04-11-2018 19:05:00 9.7 C 95 % 8.94 C
519 04-11-2018 19:10:00 9.7 C 95 % 8.94 C
520 04-11-2018 19:15:00 9.7 C 95 % 8.94 C
521 04-11-2018 19:20:00 9.7 C 95 % 8.94 C
522 04-11-2018 19:25:00 9.7 C 95 % 8.94 C
523 04-11-2018 19:30:00 9.7 C 95 % 8.94 C
524 04-11-2018 19:35:00 9.7 C 95 % 8.94 C
525 04-11-2018 19:40:00 9.7 C 95 % 8.94 C
Sensor: Nr:Datum:Temp:Feuchte:Taupunkt:
Aussen-T/F 526 04-11-2018 19:45:00 9.7 C 95 % 8.94 C
527 04-11-2018 19:50:00 9.7 C 95 % 8.94 C
528 04-11-2018 19:55:00 9.7 C 95 % 8.94 C
529 04-11-2018 20:00:00 9.7 C 95 % 8.94 C
530 04-11-2018 20:05:00 9.7 C 95 % 8.94 C
531 04-11-2018 20:10:00 9.7 C 95 % 8.94 C
532 04-11-2018 20:15:00 9.7 C 95 % 8.94 C
533 04-11-2018 20:20:00 9.7 C 95 % 8.94 C
534 04-11-2018 20:25:00 9.7 C 95 % 8.94 C
535 04-11-2018 20:30:00 9.7 C 95 % 8.94 C
536 04-11-2018 20:35:00 9.7 C 95 % 8.94 C
537 04-11-2018 20:40:00 9.7 C 95 % 8.94 C
538 04-11-2018 20:45:00 9.7 C 95 % 8.94 C
539 04-11-2018 20:50:00 9.7 C 95 % 8.94 C
540 04-11-2018 20:55:00 9.8 C 95 % 9.04 C
541 04-11-2018 21:00:00 9.8 C 95 % 9.04 C
542 04-11-2018 21:05:00 9.8 C 95 % 9.04 C
543 04-11-2018 21:10:00 9.8 C 95 % 9.04 C
544 04-11-2018 21:15:00 9.8 C 95 % 9.04 C
545 04-11-2018 21:20:00 9.8 C 95 % 9.04 C
546 04-11-2018 21:25:00 9.8 C 95 % 9.04 C
547 04-11-2018 21:30:00 9.8 C 95 % 9.04 C
548 04-11-2018 21:35:00 9.8 C 95 % 9.04 C
549 04-11-2018 21:40:00 9.8 C 95 % 9.04 C
550 04-11-2018 21:45:00 9.8 C 95 % 9.04 C
Sensor: Nr:Datum:Temp:Feuchte:Taupunkt:
Aussen-T/F 551 04-11-2018 21:50:00 9.8 C 95 % 9.04 C
552 04-11-2018 21:55:00 9.8 C 95 % 9.04 C
553 04-11-2018 22:00:00 9.8 C 95 % 9.04 C
554 04-11-2018 22:05:00 9.8 C 95 % 9.04 C
555 04-11-2018 22:10:00 9.8 C 95 % 9.04 C
556 04-11-2018 22:15:00 9.8 C 95 % 9.04 C
557 04-11-2018 22:20:00 9.8 C 95 % 9.04 C
558 04-11-2018 22:25:00 9.8 C 95 % 9.04 C
559 04-11-2018 22:30:00 9.8 C 95 % 9.04 C
560 04-11-2018 22:35:00 9.8 C 95 % 9.04 C
561 04-11-2018 22:40:00 9.8 C 95 % 9.04 C
562 04-11-2018 22:45:00 9.8 C 95 % 9.04 C
563 04-11-2018 22:50:00 9.8 C 95 % 9.04 C
564 04-11-2018 22:55:00 9.8 C 95 % 9.04 C
565 04-11-2018 23:00:00 9.8 C 95 % 9.04 C
566 04-11-2018 23:05:00 9.8 C 95 % 9.04 C
567 04-11-2018 23:10:00 9.8 C 95 % 9.04 C
568 04-11-2018 23:15:00 9.8 C 95 % 9.04 C
569 04-11-2018 23:20:00 9.8 C 95 % 9.04 C
570 04-11-2018 23:25:00 9.8 C 95 % 9.04 C
571 04-11-2018 23:30:00 9.8 C 95 % 9.04 C
572 04-11-2018 23:35:00 9.8 C 95 % 9.04 C
573 04-11-2018 23:40:00 9.9 C 95 % 9.14 C
574 04-11-2018 23:45:00 9.8 C 95 % 9.04 C
575 04-11-2018 23:50:00 9.8 C 95 % 9.04 C
Sensor: Nr:Datum:Temp:Feuchte:Taupunkt:
Aussen-T/F 576 04-11-2018 23:55:00 9.8 C 95 % 9.04 C
577 05-11-2018 00:00:00 9.8 C 95 % 9.04 C
578 05-11-2018 00:05:00 9.8 C 95 % 9.04 C
579 05-11-2018 00:10:00 9.8 C 95 % 9.04 C
580 05-11-2018 00:15:00 9.8 C 95 % 9.04 C
581 05-11-2018 00:20:00 9.8 C 95 % 9.04 C
582 05-11-2018 00:25:00 9.8 C 95 % 9.04 C
583 05-11-2018 00:30:00 9.8 C 95 % 9.04 C
584 05-11-2018 00:35:00 9.8 C 95 % 9.04 C
585 05-11-2018 00:40:00 9.8 C 95 % 9.04 C
586 05-11-2018 00:45:00 9.8 C 95 % 9.04 C
587 05-11-2018 00:50:00 9.8 C 95 % 9.04 C
588 05-11-2018 00:55:00 9.8 C 95 % 9.04 C
589 05-11-2018 01:00:00 9.8 C 95 % 9.04 C
590 05-11-2018 01:05:00 9.8 C 95 % 9.04 C
591 05-11-2018 01:10:00 9.8 C 95 % 9.04 C
592 05-11-2018 01:15:00 9.8 C 95 % 9.04 C
593 05-11-2018 01:20:00 9.8 C 95 % 9.04 C
594 05-11-2018 01:25:00 9.8 C 95 % 9.04 C
595 05-11-2018 01:30:00 9.8 C 95 % 9.04 C
596 05-11-2018 01:35:00 9.8 C 95 % 9.04 C
597 05-11-2018 01:40:00 9.8 C 95 % 9.04 C
598 05-11-2018 01:45:00 9.7 C 95 % 8.94 C
599 05-11-2018 01:50:00 9.7 C 95 % 8.94 C
600 05-11-2018 01:55:00 9.7 C 95 % 8.94 C
Sensor: Nr:Datum:Temp:Feuchte:Taupunkt:
Aussen-T/F 601 05-11-2018 02:00:00 9.7 C 95 % 8.94 C
602 05-11-2018 02:05:00 9.7 C 95 % 8.94 C
603 05-11-2018 02:10:00 9.7 C 95 % 8.94 C
604 05-11-2018 02:15:00 9.7 C 95 % 8.94 C
605 05-11-2018 02:20:00 9.7 C 95 % 8.94 C
606 05-11-2018 02:25:00 9.7 C 95 % 8.94 C
607 05-11-2018 02:30:00 9.7 C 95 % 8.94 C
608 05-11-2018 02:35:00 9.7 C 95 % 8.94 C
609 05-11-2018 02:40:00 9.7 C 95 % 8.94 C
610 05-11-2018 02:45:00 9.7 C 95 % 8.94 C
611 05-11-2018 02:50:00 9.7 C 95 % 8.94 C
612 05-11-2018 02:55:00 9.7 C 95 % 8.94 C
613 05-11-2018 03:00:00 9.7 C 95 % 8.94 C
614 05-11-2018 03:05:00 9.7 C 95 % 8.94 C
615 05-11-2018 03:10:00 9.7 C 95 % 8.94 C
616 05-11-2018 03:15:00 9.7 C 95 % 8.94 C
617 05-11-2018 03:20:00 9.7 C 95 % 8.94 C
618 05-11-2018 03:25:00 9.7 C 95 % 8.94 C
619 05-11-2018 03:30:00 9.7 C 95 % 8.94 C
620 05-11-2018 03:35:00 9.7 C 95 % 8.94 C
621 05-11-2018 03:40:00 9.7 C 95 % 8.94 C
622 05-11-2018 03:45:00 9.7 C 95 % 8.94 C
623 05-11-2018 03:50:00 9.7 C 95 % 8.94 C
624 05-11-2018 03:55:00 9.7 C 95 % 8.94 C
625 05-11-2018 04:00:00 9.7 C 95 % 8.94 C
Sensor: Nr:Datum:Temp:Feuchte:Taupunkt:
Aussen-T/F 626 05-11-2018 04:05:00 9.7 C 95 % 8.94 C
627 05-11-2018 04:10:00 9.7 C 95 % 8.94 C
628 05-11-2018 04:15:00 9.7 C 95 % 8.94 C
629 05-11-2018 04:20:00 9.7 C 95 % 8.94 C
630 05-11-2018 04:25:00 9.7 C 95 % 8.94 C
631 05-11-2018 04:30:00 9.7 C 95 % 8.94 C
632 05-11-2018 04:35:00 9.7 C 95 % 8.94 C
633 05-11-2018 04:40:00 9.7 C 95 % 8.94 C
634 05-11-2018 04:45:00 9.7 C 95 % 8.94 C
635 05-11-2018 04:50:00 9.7 C 95 % 8.94 C
636 05-11-2018 04:55:00 9.7 C 95 % 8.94 C
637 05-11-2018 05:00:00 9.7 C 95 % 8.94 C
638 05-11-2018 05:05:00 9.7 C 95 % 8.94 C
639 05-11-2018 05:10:00 9.8 C 95 % 9.04 C
640 05-11-2018 05:15:00 9.8 C 95 % 9.04 C
641 05-11-2018 05:20:00 9.8 C 95 % 9.04 C
642 05-11-2018 05:25:00 9.8 C 95 % 9.04 C
643 05-11-2018 05:30:00 9.8 C 95 % 9.04 C
644 05-11-2018 05:35:00 9.8 C 95 % 9.04 C
645 05-11-2018 05:40:00 9.8 C 95 % 9.04 C
646 05-11-2018 05:45:00 9.8 C 95 % 9.04 C
647 05-11-2018 05:50:00 9.8 C 95 % 9.04 C
648 05-11-2018 05:55:00 9.8 C 95 % 9.04 C
649 05-11-2018 06:00:00 9.8 C 95 % 9.04 C
650 05-11-2018 06:05:00 9.8 C 95 % 9.04 C
Sensor: Nr:Datum:Temp:Feuchte:Taupunkt:
Aussen-T/F 651 05-11-2018 06:10:00 9.8 C 95 % 9.04 C
652 05-11-2018 06:15:00 9.9 C 95 % 9.14 C
653 05-11-2018 06:20:00 9.8 C 95 % 9.04 C
654 05-11-2018 06:25:00 9.9 C 95 % 9.14 C
655 05-11-2018 06:30:00 9.9 C 95 % 9.14 C
656 05-11-2018 06:35:00 9.9 C 95 % 9.14 C
657 05-11-2018 06:40:00 9.9 C 95 % 9.14 C
658 05-11-2018 06:45:00 9.9 C 95 % 9.14 C
659 05-11-2018 06:50:00 9.9 C 95 % 9.14 C
660 05-11-2018 06:55:00 9.9 C 95 % 9.14 C
661 05-11-2018 07:00:00 9.9 C 95 % 9.14 C
662 05-11-2018 07:05:00 9.9 C 95 % 9.14 C
663 05-11-2018 07:10:00 9.9 C 95 % 9.14 C
664 05-11-2018 07:15:00 9.9 C 95 % 9.14 C
665 05-11-2018 07:20:00 9.9 C 95 % 9.14 C
666 05-11-2018 07:25:00 9.9 C 95 % 9.14 C
667 05-11-2018 07:30:00 9.9 C 95 % 9.14 C
668 05-11-2018 07:35:00 9.9 C 95 % 9.14 C
669 05-11-2018 07:40:00 9.9 C 95 % 9.14 C
670 05-11-2018 07:45:00 10 C 95 % 9.24 C
671 05-11-2018 07:50:00 10 C 95 % 9.24 C
672 05-11-2018 07:55:00 10 C 95 % 9.24 C
673 05-11-2018 08:00:00 10 C 95 % 9.24 C
674 05-11-2018 08:05:00 10.1 C 95 % 9.34 C
675 05-11-2018 08:10:00 10.1 C 95 % 9.34 C
Sensor: Nr:Datum:Temp:Feuchte:Taupunkt:
Aussen-T/F 676 05-11-2018 08:15:00 10.1 C 95 % 9.34 C
677 05-11-2018 08:20:00 10.1 C 95 % 9.34 C
678 05-11-2018 08:25:00 10.1 C 95 % 9.34 C
679 05-11-2018 08:30:00 10.2 C 95 % 9.44 C
680 05-11-2018 08:35:00 10.2 C 95 % 9.44 C
681 05-11-2018 08:40:00 10.2 C 95 % 9.44 C
682 05-11-2018 08:45:00 10.3 C 95 % 9.54 C
683 05-11-2018 08:50:00 10.3 C 95 % 9.54 C
684 05-11-2018 08:55:00 10.4 C 95 % 9.63 C
685 05-11-2018 09:00:00 10.4 C 95 % 9.63 C
686 05-11-2018 09:05:00 10.5 C 95 % 9.73 C
687 05-11-2018 09:10:00 10.6 C 95 % 9.83 C
688 05-11-2018 09:15:00 10.6 C 95 % 9.83 C
689 05-11-2018 09:20:00 10.6 C 95 % 9.83 C
690 05-11-2018 09:25:00 10.7 C 95 % 9.93 C
691 05-11-2018 09:30:00 10.7 C 95 % 9.93 C
692 05-11-2018 09:35:00 10.7 C 95 % 9.93 C
693 05-11-2018 09:40:00 10.8 C 95 % 10.03 C
694 05-11-2018 09:45:00 10.8 C 95 % 10.03 C
695 05-11-2018 09:50:00 10.8 C 95 % 10.03 C
696 05-11-2018 09:55:00 10.8 C 95 % 10.03 C
697 05-11-2018 10:00:00 10.9 C 95 % 10.13 C
698 05-11-2018 10:05:00 10.9 C 95 % 10.13 C
699 05-11-2018 10:10:00 11 C 95 % 10.23 C
700 05-11-2018 10:15:00 10.9 C 94 % 9.97 C
Sensor: Nr:Datum:Temp:Feuchte:Taupunkt:
Aussen-T/F 701 05-11-2018 10:20:00 10.9 C 94 % 9.97 C
702 05-11-2018 10:25:00 11.1 C 94 % 10.17 C
703 05-11-2018 10:30:00 11.1 C 94 % 10.17 C
704 05-11-2018 10:35:00 11.2 C 93 % 10.11 C
705 05-11-2018 10:40:00 11.2 C 93 % 10.11 C
706 05-11-2018 10:45:00 11.3 C 93 % 10.21 C
707 05-11-2018 10:50:00 11.4 C 93 % 10.31 C
708 05-11-2018 10:55:00 11.4 C 92 % 10.15 C
709 05-11-2018 11:00:00 11.6 C 92 % 10.35 C
710 05-11-2018 11:05:00 11.6 C 92 % 10.35 C
711 05-11-2018 11:10:00 11.7 C 92 % 10.44 C
712 05-11-2018 11:15:00 11.8 C 91 % 10.38 C
713 05-11-2018 11:20:00 11.9 C 91 % 10.48 C
714 05-11-2018 11:25:00 11.9 C 90 % 10.31 C
715 05-11-2018 11:30:00 12.1 C 89 % 10.34 C
716 05-11-2018 11:35:00 12.2 C 89 % 10.44 C
717 05-11-2018 11:40:00 12.2 C 89 % 10.44 C
718 05-11-2018 11:45:00 12.3 C 88 % 10.37 C
719 05-11-2018 11:50:00 12.4 C 88 % 10.47 C
720 05-11-2018 11:55:00 12.4 C 87 % 10.3 C
721 05-11-2018 12:00:00 12.6 C 87 % 10.5 C
722 05-11-2018 12:05:00 12.7 C 88 % 10.77 C
723 05-11-2018 12:10:00 12.8 C 86 % 10.52 C
724 05-11-2018 12:15:00 12.9 C 87 % 10.79 C
725 05-11-2018 12:20:00 12.9 C 85 % 10.44 C
Sensor: Nr:Datum:Temp:Feuchte:Taupunkt:
Aussen-T/F 726 05-11-2018 12:25:00 12.9 C 85 % 10.44 C
727 05-11-2018 12:30:00 12.9 C 85 % 10.44 C
728 05-11-2018 12:35:00 12.9 C 85 % 10.44 C
729 05-11-2018 12:40:00 12.8 C 85 % 10.34 C
730 05-11-2018 12:45:00 12.8 C 86 % 10.52 C
731 05-11-2018 12:50:00 12.9 C 86 % 10.62 C
732 05-11-2018 12:55:00 12.9 C 86 % 10.62 C
733 05-11-2018 13:00:00 12.9 C 85 % 10.44 C
734 05-11-2018 13:05:00 13 C 85 % 10.54 C
735 05-11-2018 13:10:00 13.1 C 85 % 10.64 C
736 05-11-2018 13:15:00 13.2 C 84 % 10.56 C
737 05-11-2018 13:20:00 13.2 C 83 % 10.38 C
738 05-11-2018 13:25:00 13.2 C 83 % 10.38 C
739 05-11-2018 13:30:00 13.3 C 83 % 10.48 C
740 05-11-2018 13:35:00 13.3 C 83 % 10.48 C
741 05-11-2018 13:40:00 13.4 C 83 % 10.57 C
742 05-11-2018 13:45:00 13.4 C 82 % 10.39 C
743 05-11-2018 13:50:00 13.4 C 82 % 10.39 C
744 05-11-2018 13:55:00 13.4 C 82 % 10.39 C
745 05-11-2018 14:00:00 13.4 C 82 % 10.39 C
746 05-11-2018 14:05:00 13.4 C 82 % 10.39 C
747 05-11-2018 14:10:00 13.4 C 82 % 10.39 C
748 05-11-2018 14:15:00 13.4 C 83 % 10.57 C
749 05-11-2018 14:20:00 13.5 C 82 % 10.49 C
750 05-11-2018 14:25:00 13.5 C 82 % 10.49 C
Sensor: Nr:Datum:Temp:Feuchte:Taupunkt:
Aussen-T/F 751 05-11-2018 14:30:00 13.6 C 82 % 10.59 C
752 05-11-2018 14:35:00 13.6 C 83 % 10.77 C
753 05-11-2018 14:40:00 13.7 C 82 % 10.69 C
754 05-11-2018 14:45:00 13.6 C 82 % 10.59 C
755 05-11-2018 14:50:00 13.6 C 82 % 10.59 C
756 05-11-2018 14:55:00 13.6 C 81 % 10.4 C
757 05-11-2018 15:00:00 13.6 C 82 % 10.59 C
758 05-11-2018 15:05:00 13.6 C 82 % 10.59 C
759 05-11-2018 15:10:00 13.6 C 82 % 10.59 C
760 05-11-2018 15:15:00 13.6 C 82 % 10.59 C
761 05-11-2018 15:20:00 13.6 C 82 % 10.59 C
762 05-11-2018 15:25:00 13.7 C 81 % 10.5 C
763 05-11-2018 15:30:00 13.7 C 81 % 10.5 C
764 05-11-2018 15:35:00 13.7 C 81 % 10.5 C
765 05-11-2018 15:40:00 13.7 C 83 % 10.87 C
766 05-11-2018 15:45:00 13.6 C 83 % 10.77 C
767 05-11-2018 15:50:00 13.5 C 83 % 10.67 C
768 05-11-2018 15:55:00 13.3 C 83 % 10.48 C
769 05-11-2018 16:00:00 13.2 C 84 % 10.56 C
770 05-11-2018 16:05:00 13.1 C 84 % 10.46 C
771 05-11-2018 16:10:00 12.9 C 85 % 10.44 C
772 05-11-2018 16:15:00 12.7 C 85 % 10.25 C
773 05-11-2018 16:20:00 12.5 C 86 % 10.22 C
774 05-11-2018 16:25:00 12.3 C 86 % 10.03 C
775 05-11-2018 16:30:00 12.1 C 87 % 10 C
Sensor: Nr:Datum:Temp:Feuchte:Taupunkt:
Aussen-T/F 776 05-11-2018 16:35:00 11.9 C 87 % 9.81 C
777 05-11-2018 16:40:00 11.7 C 88 % 9.78 C
778 05-11-2018 16:45:00 11.6 C 88 % 9.68 C
779 05-11-2018 16:50:00 11.4 C 88 % 9.49 C
780 05-11-2018 16:55:00 11.2 C 89 % 9.46 C
781 05-11-2018 17:00:00 11.1 C 89 % 9.36 C
782 05-11-2018 17:05:00 10.9 C 90 % 9.33 C
783 05-11-2018 17:10:00 10.8 C 90 % 9.23 C
784 05-11-2018 17:15:00 10.7 C 90 % 9.13 C
785 05-11-2018 17:20:00 10.6 C 91 % 9.19 C
786 05-11-2018 17:25:00 10.5 C 91 % 9.09 C
787 05-11-2018 17:30:00 10.4 C 91 % 9 C
788 05-11-2018 17:35:00 10.4 C 91 % 9 C
789 05-11-2018 17:40:00 10.3 C 91 % 8.9 C
790 05-11-2018 17:45:00 10.3 C 92 % 9.06 C
791 05-11-2018 17:50:00 10.3 C 92 % 9.06 C
792 05-11-2018 17:55:00 10.2 C 92 % 8.96 C
793 05-11-2018 18:00:00 10.2 C 92 % 8.96 C
794 05-11-2018 18:05:00 10.2 C 92 % 8.96 C
795 05-11-2018 18:10:00 10.1 C 92 % 8.86 C
796 05-11-2018 18:15:00 9.9 C 92 % 8.66 C
797 05-11-2018 18:20:00 9.9 C 92 % 8.66 C
798 05-11-2018 18:25:00 9.8 C 93 % 8.72 C
799 05-11-2018 18:30:00 9.8 C 92 % 8.56 C
800 05-11-2018 18:35:00 9.7 C 93 % 8.62 C
Sensor: Nr:Datum:Temp:Feuchte:Taupunkt:
Aussen-T/F 801 05-11-2018 18:40:00 9.7 C 93 % 8.62 C
802 05-11-2018 18:45:00 9.7 C 93 % 8.62 C
803 05-11-2018 18:50:00 9.7 C 94 % 8.78 C
804 05-11-2018 18:55:00 9.7 C 94 % 8.78 C
805 05-11-2018 19:00:00 9.7 C 94 % 8.78 C
806 05-11-2018 19:05:00 9.7 C 94 % 8.78 C
807 05-11-2018 19:10:00 9.7 C 94 % 8.78 C
808 05-11-2018 19:15:00 9.7 C 94 % 8.78 C
809 05-11-2018 19:20:00 9.6 C 94 % 8.68 C
810 05-11-2018 19:25:00 9.6 C 94 % 8.68 C
811 05-11-2018 19:30:00 9.6 C 94 % 8.68 C
812 05-11-2018 19:35:00 9.6 C 94 % 8.68 C
813 05-11-2018 19:40:00 9.6 C 94 % 8.68 C
814 05-11-2018 19:45:00 9.5 C 94 % 8.58 C
815 05-11-2018 19:50:00 9.5 C 94 % 8.58 C
816 05-11-2018 19:55:00 9.4 C 94 % 8.48 C
817 05-11-2018 20:00:00 9.3 C 94 % 8.39 C
818 05-11-2018 20:05:00 9.3 C 94 % 8.39 C
819 05-11-2018 20:10:00 9.2 C 94 % 8.29 C
820 05-11-2018 20:15:00 9.1 C 94 % 8.19 C
821 05-11-2018 20:20:00 8.9 C 94 % 7.99 C
822 05-11-2018 20:25:00 8.8 C 94 % 7.89 C
823 05-11-2018 20:30:00 8.7 C 94 % 7.79 C
824 05-11-2018 20:35:00 8.7 C 94 % 7.79 C
825 05-11-2018 20:40:00 8.9 C 95 % 8.14 C
Sensor: Nr:Datum:Temp:Feuchte:Taupunkt:
Aussen-T/F 826 05-11-2018 20:45:00 8.8 C 95 % 8.04 C
827 05-11-2018 20:50:00 8.8 C 95 % 8.04 C
828 05-11-2018 20:55:00 8.7 C 95 % 7.94 C
829 05-11-2018 21:00:00 8.6 C 95 % 7.85 C
830 05-11-2018 21:05:00 8.4 C 94 % 7.49 C
831 05-11-2018 21:10:00 8.2 C 94 % 7.29 C
832 05-11-2018 21:15:00 8 C 94 % 7.09 C
833 05-11-2018 21:20:00 7.9 C 94 % 7 C
834 05-11-2018 21:25:00 7.8 C 94 % 6.9 C
835 05-11-2018 21:30:00 7.7 C 94 % 6.8 C
836 05-11-2018 21:35:00 7.8 C 95 % 7.05 C
837 05-11-2018 21:40:00 7.8 C 95 % 7.05 C
838 05-11-2018 21:45:00 7.9 C 95 % 7.15 C
839 05-11-2018 21:50:00 8.1 C 96 % 7.5 C
840 05-11-2018 21:55:00 8.1 C 95 % 7.35 C
841 05-11-2018 22:00:00 8 C 95 % 7.25 C
842 05-11-2018 22:05:00 8 C 95 % 7.25 C
843 05-11-2018 22:10:00 8 C 95 % 7.25 C
844 05-11-2018 22:15:00 8 C 96 % 7.4 C
845 05-11-2018 22:20:00 8.1 C 96 % 7.5 C
846 05-11-2018 22:25:00 8.1 C 96 % 7.5 C
847 05-11-2018 22:30:00 8.1 C 96 % 7.5 C
848 05-11-2018 22:35:00 8.1 C 96 % 7.5 C
849 05-11-2018 22:40:00 8.1 C 96 % 7.5 C
850 05-11-2018 22:45:00 7.8 C 95 % 7.05 C
Sensor: Nr:Datum:Temp:Feuchte:Taupunkt:
Aussen-T/F 851 05-11-2018 22:50:00 7.7 C 95 % 6.95 C
852 05-11-2018 22:55:00 7.6 C 95 % 6.85 C
853 05-11-2018 23:00:00 7.4 C 95 % 6.65 C
854 05-11-2018 23:05:00 7.3 C 95 % 6.55 C
855 05-11-2018 23:10:00 7 C 95 % 6.26 C
856 05-11-2018 23:15:00 6.9 C 95 % 6.16 C
857 05-11-2018 23:20:00 6.9 C 95 % 6.16 C
858 05-11-2018 23:25:00 6.8 C 95 % 6.06 C
859 05-11-2018 23:30:00 6.7 C 95 % 5.96 C
860 05-11-2018 23:35:00 6.8 C 96 % 6.21 C
861 05-11-2018 23:40:00 6.7 C 95 % 5.96 C
862 05-11-2018 23:45:00 6.5 C 95 % 5.76 C
863 05-11-2018 23:50:00 6.5 C 95 % 5.76 C
864 05-11-2018 23:55:00 6.5 C 96 % 5.91 C
865 06-11-2018 00:00:00 6.4 C 96 % 5.81 C
866 06-11-2018 00:05:00 6.4 C 96 % 5.81 C
867 06-11-2018 00:10:00 6.3 C 95 % 5.56 C
868 06-11-2018 00:15:00 6.3 C 96 % 5.71 C
869 06-11-2018 00:20:00 6.4 C 96 % 5.81 C
870 06-11-2018 00:25:00 6.7 C 96 % 6.11 C
871 06-11-2018 00:30:00 6.8 C 96 % 6.21 C
872 06-11-2018 00:35:00 6.7 C 96 % 6.11 C
873 06-11-2018 00:40:00 6.7 C 96 % 6.11 C
874 06-11-2018 00:45:00 6.6 C 96 % 6.01 C
875 06-11-2018 00:50:00 6.5 C 96 % 5.91 C
Sensor: Nr:Datum:Temp:Feuchte:Taupunkt:
Aussen-T/F 876 06-11-2018 00:55:00 6.4 C 96 % 5.81 C
877 06-11-2018 01:00:00 6.4 C 96 % 5.81 C
878 06-11-2018 01:05:00 6.6 C 96 % 6.01 C
879 06-11-2018 01:10:00 6.6 C 97 % 6.16 C
880 06-11-2018 01:15:00 6.7 C 97 % 6.26 C
881 06-11-2018 01:20:00 6.7 C 97 % 6.26 C
882 06-11-2018 01:25:00 6.6 C 97 % 6.16 C
883 06-11-2018 01:30:00 6.6 C 96 % 6.01 C
884 06-11-2018 01:35:00 6.6 C 96 % 6.01 C
885 06-11-2018 01:40:00 6.6 C 96 % 6.01 C
886 06-11-2018 01:45:00 6.6 C 96 % 6.01 C
887 06-11-2018 01:50:00 6.6 C 96 % 6.01 C
888 06-11-2018 01:55:00 6.6 C 96 % 6.01 C
889 06-11-2018 02:00:00 6.5 C 96 % 5.91 C
890 06-11-2018 02:05:00 6.5 C 96 % 5.91 C
891 06-11-2018 02:10:00 6.4 C 96 % 5.81 C
892 06-11-2018 02:15:00 6.4 C 96 % 5.81 C
893 06-11-2018 02:20:00 6.4 C 97 % 5.96 C
894 06-11-2018 02:25:00 6.4 C 97 % 5.96 C
895 06-11-2018 02:30:00 6.4 C 97 % 5.96 C
896 06-11-2018 02:35:00 6.4 C 97 % 5.96 C
897 06-11-2018 02:40:00 6.4 C 97 % 5.96 C
898 06-11-2018 02:45:00 6.4 C 97 % 5.96 C
899 06-11-2018 02:50:00 6.4 C 97 % 5.96 C
900 06-11-2018 02:55:00 6.4 C 97 % 5.96 C
Sensor: Nr:Datum:Temp:Feuchte:Taupunkt:
Aussen-T/F 901 06-11-2018 03:00:00 6.4 C 97 % 5.96 C
902 06-11-2018 03:05:00 6.4 C 97 % 5.96 C
903 06-11-2018 03:10:00 6.4 C 97 % 5.96 C
904 06-11-2018 03:15:00 6.3 C 97 % 5.86 C
905 06-11-2018 03:20:00 6.3 C 96 % 5.71 C
906 06-11-2018 03:25:00 6.2 C 96 % 5.61 C
907 06-11-2018 03:30:00 6.2 C 96 % 5.61 C
908 06-11-2018 03:35:00 6.2 C 96 % 5.61 C
909 06-11-2018 03:40:00 6.2 C 97 % 5.76 C
910 06-11-2018 03:45:00 6.1 C 97 % 5.66 C
911 06-11-2018 03:50:00 6 C 97 % 5.56 C
912 06-11-2018 03:55:00 5.9 C 96 % 5.31 C
913 06-11-2018 04:00:00 5.8 C 96 % 5.21 C
914 06-11-2018 04:05:00 5.8 C 96 % 5.21 C
915 06-11-2018 04:10:00 5.8 C 97 % 5.36 C
916 06-11-2018 04:15:00 5.8 C 97 % 5.36 C
917 06-11-2018 04:20:00 5.7 C 97 % 5.26 C
918 06-11-2018 04:25:00 5.7 C 96 % 5.11 C
919 06-11-2018 04:30:00 5.7 C 96 % 5.11 C
920 06-11-2018 04:35:00 5.7 C 97 % 5.26 C
921 06-11-2018 04:40:00 5.7 C 97 % 5.26 C
922 06-11-2018 04:45:00 5.7 C 97 % 5.26 C
923 06-11-2018 04:50:00 5.7 C 97 % 5.26 C
924 06-11-2018 04:55:00 5.7 C 97 % 5.26 C
925 06-11-2018 05:00:00 5.7 C 97 % 5.26 C
Sensor: Nr:Datum:Temp:Feuchte:Taupunkt:
Aussen-T/F 926 06-11-2018 05:05:00 5.7 C 97 % 5.26 C
927 06-11-2018 05:10:00 5.7 C 97 % 5.26 C
928 06-11-2018 05:15:00 5.7 C 97 % 5.26 C
929 06-11-2018 05:20:00 5.7 C 97 % 5.26 C
930 06-11-2018 05:25:00 5.6 C 97 % 5.16 C
931 06-11-2018 05:30:00 5.7 C 97 % 5.26 C
932 06-11-2018 05:35:00 5.7 C 97 % 5.26 C
933 06-11-2018 05:40:00 5.7 C 97 % 5.26 C
934 06-11-2018 05:45:00 5.7 C 97 % 5.26 C
935 06-11-2018 05:50:00 5.7 C 97 % 5.26 C
936 06-11-2018 05:55:00 5.7 C 97 % 5.26 C
937 06-11-2018 06:00:00 5.7 C 97 % 5.26 C
938 06-11-2018 06:05:00 5.7 C 97 % 5.26 C
939 06-11-2018 06:10:00 5.8 C 97 % 5.36 C
940 06-11-2018 06:15:00 5.8 C 97 % 5.36 C
941 06-11-2018 06:20:00 5.8 C 97 % 5.36 C
942 06-11-2018 06:25:00 5.8 C 97 % 5.36 C
943 06-11-2018 06:30:00 5.9 C 97 % 5.46 C
944 06-11-2018 06:35:00 5.9 C 97 % 5.46 C
945 06-11-2018 06:40:00 6 C 97 % 5.56 C
946 06-11-2018 06:45:00 6.1 C 97 % 5.66 C
947 06-11-2018 06:50:00 6.2 C 97 % 5.76 C
948 06-11-2018 06:55:00 6.2 C 97 % 5.76 C
949 06-11-2018 07:00:00 6.2 C 97 % 5.76 C
950 06-11-2018 07:05:00 6.2 C 97 % 5.76 C
Sensor: Nr:Datum:Temp:Feuchte:Taupunkt:
Aussen-T/F 951 06-11-2018 07:10:00 6.2 C 97 % 5.76 C
952 06-11-2018 07:15:00 6.2 C 97 % 5.76 C
953 06-11-2018 07:20:00 6.1 C 97 % 5.66 C
954 06-11-2018 07:25:00 6.1 C 97 % 5.66 C
955 06-11-2018 07:30:00 6.2 C 97 % 5.76 C
956 06-11-2018 07:35:00 6.2 C 97 % 5.76 C
957 06-11-2018 07:40:00 6.1 C 97 % 5.66 C
958 06-11-2018 07:45:00 6.1 C 97 % 5.66 C
959 06-11-2018 07:50:00 6.1 C 97 % 5.66 C
960 06-11-2018 07:55:00 6.1 C 97 % 5.66 C
961 06-11-2018 08:00:00 5.9 C 97 % 5.46 C
962 06-11-2018 08:05:00 5.9 C 97 % 5.46 C
963 06-11-2018 08:10:00 5.8 C 97 % 5.36 C
964 06-11-2018 08:15:00 5.9 C 97 % 5.46 C
965 06-11-2018 08:20:00 5.9 C 97 % 5.46 C
966 06-11-2018 08:25:00 5.9 C 97 % 5.46 C
967 06-11-2018 08:30:00 5.9 C 97 % 5.46 C
968 06-11-2018 08:35:00 6.1 C 97 % 5.66 C
969 06-11-2018 08:40:00 6.1 C 97 % 5.66 C
970 06-11-2018 08:45:00 6.1 C 97 % 5.66 C
971 06-11-2018 08:50:00 6.2 C 97 % 5.76 C
972 06-11-2018 08:55:00 6.2 C 97 % 5.76 C
973 06-11-2018 09:00:00 6.3 C 97 % 5.86 C
974 06-11-2018 09:05:00 6.4 C 97 % 5.96 C
975 06-11-2018 09:10:00 6.5 C 97 % 6.06 C
Sensor: Nr:Datum:Temp:Feuchte:Taupunkt:
Aussen-T/F 976 06-11-2018 09:15:00 6.6 C 97 % 6.16 C
977 06-11-2018 09:20:00 6.6 C 97 % 6.16 C
978 06-11-2018 09:25:00 6.7 C 97 % 6.26 C
979 06-11-2018 09:30:00 6.8 C 97 % 6.36 C
980 06-11-2018 09:35:00 7 C 98 % 6.71 C
981 06-11-2018 09:40:00 7.1 C 97 % 6.66 C
982 06-11-2018 09:45:00 7.1 C 97 % 6.66 C
983 06-11-2018 09:50:00 7.2 C 97 % 6.76 C
984 06-11-2018 09:55:00 7.3 C 98 % 7.01 C
985 06-11-2018 10:00:00 7.3 C 98 % 7.01 C
986 06-11-2018 10:05:00 7.4 C 97 % 6.96 C
987 06-11-2018 10:10:00 7.4 C 97 % 6.96 C
988 06-11-2018 10:15:00 7.5 C 97 % 7.06 C
989 06-11-2018 10:20:00 7.6 C 98 % 7.3 C
990 06-11-2018 10:25:00 7.7 C 98 % 7.4 C
991 06-11-2018 10:30:00 7.8 C 97 % 7.35 C
992 06-11-2018 10:35:00 7.9 C 98 % 7.6 C
993 06-11-2018 10:40:00 8.1 C 98 % 7.8 C
994 06-11-2018 10:45:00 8.2 C 98 % 7.9 C
995 06-11-2018 10:50:00 8.3 C 98 % 8 C
996 06-11-2018 10:55:00 8.4 C 98 % 8.1 C
997 06-11-2018 11:00:00 8.4 C 98 % 8.1 C
998 06-11-2018 11:05:00 8.6 C 98 % 8.3 C
999 06-11-2018 11:10:00 8.6 C 98 % 8.3 C
1000 06-11-2018 11:15:00 8.7 C 98 % 8.4 C
Sensor: Nr:Datum:Temp:Feuchte:Taupunkt:
Aussen-T/F 1001 06-11-2018 11:20:00 8.8 C 98 % 8.5 C
1002 06-11-2018 11:25:00 8.9 C 98 % 8.6 C
1003 06-11-2018 11:30:00 9.1 C 98 % 8.8 C
1004 06-11-2018 11:35:00 9.1 C 98 % 8.8 C
1005 06-11-2018 11:40:00 9.2 C 98 % 8.9 C
1006 06-11-2018 11:45:00 9.3 C 98 % 9 C
1007 06-11-2018 11:50:00 9.4 C 98 % 9.1 C
1008 06-11-2018 11:55:00 9.6 C 98 % 9.3 C
1009 06-11-2018 12:00:00 9.7 C 98 % 9.4 C
1010 06-11-2018 12:05:00 9.8 C 98 % 9.5 C
1011 06-11-2018 12:10:00 9.9 C 98 % 9.6 C
1012 06-11-2018 12:15:00 10 C 98 % 9.7 C
1013 06-11-2018 12:20:00 10.1 C 97 % 9.65 C
1014 06-11-2018 12:25:00 10.2 C 97 % 9.75 C
1015 06-11-2018 12:30:00 10.4 C 97 % 9.94 C
1016 06-11-2018 12:35:00 10.6 C 97 % 10.14 C
1017 06-11-2018 12:40:00 10.7 C 97 % 10.24 C
1018 06-11-2018 12:45:00 10.8 C 97 % 10.34 C
1019 06-11-2018 12:50:00 10.9 C 97 % 10.44 C
1020 06-11-2018 12:55:00 11 C 97 % 10.54 C
1021 06-11-2018 13:00:00 11.1 C 96 % 10.49 C
1022 06-11-2018 13:05:00 11.1 C 96 % 10.49 C
1023 06-11-2018 13:10:00 11.2 C 96 % 10.59 C
1024 06-11-2018 13:15:00 11.2 C 96 % 10.59 C
1025 06-11-2018 13:20:00 11.3 C 96 % 10.69 C
Sensor: Nr:Datum:Temp:Feuchte:Taupunkt:
Aussen-T/F 1026 06-11-2018 13:25:00 11.4 C 96 % 10.79 C
1027 06-11-2018 13:30:00 11.5 C 96 % 10.88 C
1028 06-11-2018 13:35:00 11.6 C 96 % 10.98 C
1029 06-11-2018 13:40:00 11.7 C 96 % 11.08 C
1030 06-11-2018 13:45:00 11.8 C 96 % 11.18 C
1031 06-11-2018 13:50:00 11.8 C 95 % 11.03 C
1032 06-11-2018 13:55:00 11.9 C 96 % 11.28 C
1033 06-11-2018 14:00:00 12 C 96 % 11.38 C
1034 06-11-2018 14:05:00 12.1 C 95 % 11.32 C
1035 06-11-2018 14:10:00 12.2 C 95 % 11.42 C
1036 06-11-2018 14:15:00 12.2 C 95 % 11.42 C
1037 06-11-2018 14:20:00 12.3 C 95 % 11.52 C
1038 06-11-2018 14:25:00 12.3 C 95 % 11.52 C
1039 06-11-2018 14:30:00 12.4 C 95 % 11.62 C
1040 06-11-2018 14:35:00 12.4 C 94 % 11.46 C
1041 06-11-2018 14:40:00 12.5 C 94 % 11.56 C
1042 06-11-2018 14:45:00 12.6 C 93 % 11.5 C
1043 06-11-2018 14:50:00 12.6 C 94 % 11.66 C
1044 06-11-2018 14:55:00 12.7 C 93 % 11.6 C
1045 06-11-2018 15:00:00 12.7 C 93 % 11.6 C
1046 06-11-2018 15:05:00 12.7 C 93 % 11.6 C
1047 06-11-2018 15:10:00 12.8 C 93 % 11.7 C
1048 06-11-2018 15:15:00 12.8 C 92 % 11.53 C
1049 06-11-2018 15:20:00 12.8 C 92 % 11.53 C
1050 06-11-2018 15:25:00 12.8 C 92 % 11.53 C
Sensor: Nr:Datum:Temp:Feuchte:Taupunkt:
Aussen-T/F 1051 06-11-2018 15:30:00 12.8 C 92 % 11.53 C
1052 06-11-2018 15:35:00 12.8 C 92 % 11.53 C
1053 06-11-2018 15:40:00 12.9 C 92 % 11.63 C
1054 06-11-2018 15:45:00 12.8 C 91 % 11.37 C
1055 06-11-2018 15:50:00 12.8 C 91 % 11.37 C
1056 06-11-2018 15:55:00 12.8 C 91 % 11.37 C
1057 06-11-2018 16:00:00 12.8 C 91 % 11.37 C
1058 06-11-2018 16:05:00 12.7 C 90 % 11.1 C
1059 06-11-2018 16:10:00 12.6 C 91 % 11.17 C
1060 06-11-2018 16:15:00 12.6 C 91 % 11.17 C
1061 06-11-2018 16:20:00 12.4 C 90 % 10.81 C
1062 06-11-2018 16:25:00 12.3 C 91 % 10.87 C
1063 06-11-2018 16:30:00 12.2 C 91 % 10.78 C
1064 06-11-2018 16:35:00 12.1 C 91 % 10.68 C
1065 06-11-2018 16:40:00 12 C 91 % 10.58 C
1066 06-11-2018 16:45:00 11.9 C 91 % 10.48 C
1067 06-11-2018 16:50:00 11.8 C 91 % 10.38 C
1068 06-11-2018 16:55:00 11.7 C 91 % 10.28 C
1069 06-11-2018 17:00:00 11.7 C 92 % 10.44 C
1070 06-11-2018 17:05:00 11.6 C 92 % 10.35 C
1071 06-11-2018 17:10:00 11.5 C 92 % 10.25 C
1072 06-11-2018 17:15:00 11.3 C 91 % 9.89 C
1073 06-11-2018 17:20:00 11.1 C 91 % 9.69 C
1074 06-11-2018 17:25:00 11 C 92 % 9.75 C
1075 06-11-2018 17:30:00 10.9 C 92 % 9.65 C
Sensor: Nr:Datum:Temp:Feuchte:Taupunkt:
Aussen-T/F 1076 06-11-2018 17:35:00 10.9 C 93 % 9.81 C
1077 06-11-2018 17:40:00 10.9 C 93 % 9.81 C
1078 06-11-2018 17:45:00 10.8 C 93 % 9.71 C
1079 06-11-2018 17:50:00 10.8 C 93 % 9.71 C
1080 06-11-2018 17:55:00 10.8 C 93 % 9.71 C
1081 06-11-2018 18:00:00 10.7 C 93 % 9.62 C
1082 06-11-2018 18:05:00 10.6 C 93 % 9.52 C
1083 06-11-2018 18:10:00 10.5 C 93 % 9.42 C
1084 06-11-2018 18:15:00 10.4 C 93 % 9.32 C
1085 06-11-2018 18:20:00 10.3 C 93 % 9.22 C
1086 06-11-2018 18:25:00 10.2 C 93 % 9.12 C
1087 06-11-2018 18:30:00 10.1 C 94 % 9.18 C
1088 06-11-2018 18:35:00 10.1 C 93 % 9.02 C
1089 06-11-2018 18:40:00 9.9 C 94 % 8.98 C
1090 06-11-2018 18:45:00 9.9 C 94 % 8.98 C
1091 06-11-2018 18:50:00 9.9 C 94 % 8.98 C
1092 06-11-2018 18:55:00 9.8 C 94 % 8.88 C
1093 06-11-2018 19:00:00 9.6 C 93 % 8.53 C
1094 06-11-2018 19:05:00 9.4 C 94 % 8.48 C
1095 06-11-2018 19:10:00 9.4 C 94 % 8.48 C
1096 06-11-2018 19:15:00 9.5 C 94 % 8.58 C
1097 06-11-2018 19:20:00 9.5 C 94 % 8.58 C
1098 06-11-2018 19:25:00 9.4 C 95 % 8.64 C
1099 06-11-2018 19:30:00 9.5 C 95 % 8.74 C
1100 06-11-2018 19:35:00 9.4 C 94 % 8.48 C
Sensor: Nr:Datum:Temp:Feuchte:Taupunkt:
Aussen-T/F 1101 06-11-2018 19:40:00 9.3 C 94 % 8.39 C
1102 06-11-2018 19:45:00 9.1 C 94 % 8.19 C
1103 06-11-2018 19:50:00 9.1 C 94 % 8.19 C
1104 06-11-2018 19:55:00 8.9 C 95 % 8.14 C
1105 06-11-2018 20:00:00 8.9 C 95 % 8.14 C
1106 06-11-2018 20:05:00 8.9 C 95 % 8.14 C
1107 06-11-2018 20:10:00 8.9 C 95 % 8.14 C
1108 06-11-2018 20:15:00 8.9 C 95 % 8.14 C
1109 06-11-2018 20:20:00 8.9 C 95 % 8.14 C
1110 06-11-2018 20:25:00 8.8 C 95 % 8.04 C
1111 06-11-2018 20:30:00 8.9 C 95 % 8.14 C
1112 06-11-2018 20:35:00 8.9 C 95 % 8.14 C
1113 06-11-2018 20:40:00 8.9 C 95 % 8.14 C
1114 06-11-2018 20:45:00 8.9 C 95 % 8.14 C
1115 06-11-2018 20:50:00 8.9 C 95 % 8.14 C
1116 06-11-2018 20:55:00 8.9 C 96 % 8.3 C
1117 06-11-2018 21:00:00 8.9 C 96 % 8.3 C
1118 06-11-2018 21:05:00 8.9 C 96 % 8.3 C
1119 06-11-2018 21:10:00 8.9 C 96 % 8.3 C
1120 06-11-2018 21:15:00 8.9 C 96 % 8.3 C
1121 06-11-2018 21:20:00 8.8 C 96 % 8.2 C
1122 06-11-2018 21:25:00 8.8 C 96 % 8.2 C
1123 06-11-2018 21:30:00 8.8 C 96 % 8.2 C
1124 06-11-2018 21:35:00 8.7 C 95 % 7.94 C
1125 06-11-2018 21:40:00 8.6 C 95 % 7.85 C
Sensor: Nr:Datum:Temp:Feuchte:Taupunkt:
Aussen-T/F 1126 06-11-2018 21:45:00 8.4 C 95 % 7.65 C
1127 06-11-2018 21:50:00 8.3 C 95 % 7.55 C
1128 06-11-2018 21:55:00 8.4 C 96 % 7.8 C
1129 06-11-2018 22:00:00 8.4 C 96 % 7.8 C
1130 06-11-2018 22:05:00 8.4 C 96 % 7.8 C
1131 06-11-2018 22:10:00 8.4 C 96 % 7.8 C
1132 06-11-2018 22:15:00 8.3 C 96 % 7.7 C
1133 06-11-2018 22:20:00 8.2 C 96 % 7.6 C
1134 06-11-2018 22:25:00 8.1 C 96 % 7.5 C
1135 06-11-2018 22:30:00 7.9 C 95 % 7.15 C
1136 06-11-2018 22:35:00 7.8 C 95 % 7.05 C
1137 06-11-2018 22:40:00 7.7 C 96 % 7.1 C
1138 06-11-2018 22:45:00 7.8 C 96 % 7.2 C
1139 06-11-2018 22:50:00 7.9 C 96 % 7.3 C
1140 06-11-2018 22:55:00 8 C 96 % 7.4 C
1141 06-11-2018 23:00:00 7.9 C 96 % 7.3 C
1142 06-11-2018 23:05:00 7.8 C 96 % 7.2 C
1143 06-11-2018 23:10:00 7.8 C 96 % 7.2 C
1144 06-11-2018 23:15:00 7.7 C 96 % 7.1 C
1145 06-11-2018 23:20:00 7.7 C 96 % 7.1 C
1146 06-11-2018 23:25:00 7.7 C 96 % 7.1 C
1147 06-11-2018 23:30:00 7.8 C 96 % 7.2 C
1148 06-11-2018 23:35:00 7.8 C 96 % 7.2 C
1149 06-11-2018 23:40:00 7.7 C 96 % 7.1 C
1150 06-11-2018 23:45:00 7.6 C 96 % 7 C
Sensor: Nr:Datum:Temp:Feuchte:Taupunkt:
Aussen-T/F 1151 06-11-2018 23:50:00 7.5 C 96 % 6.9 C
1152 06-11-2018 23:55:00 7.4 C 96 % 6.8 C
1153 07-11-2018 00:00:00 7.4 C 96 % 6.8 C
1154 07-11-2018 00:05:00 7.3 C 96 % 6.71 C
1155 07-11-2018 00:10:00 7.3 C 96 % 6.71 C
1156 07-11-2018 00:15:00 7.3 C 96 % 6.71 C
1157 07-11-2018 00:20:00 7.3 C 96 % 6.71 C
1158 07-11-2018 00:25:00 7.3 C 96 % 6.71 C
1159 07-11-2018 00:30:00 7.4 C 97 % 6.96 C
1160 07-11-2018 00:35:00 7.4 C 97 % 6.96 C
1161 07-11-2018 00:40:00 7.5 C 97 % 7.06 C
1162 07-11-2018 00:45:00 7.6 C 97 % 7.16 C
1163 07-11-2018 00:50:00 7.7 C 97 % 7.25 C
1164 07-11-2018 00:55:00 7.6 C 96 % 7 C
1165 07-11-2018 01:00:00 7.3 C 96 % 6.71 C
1166 07-11-2018 01:05:00 7.2 C 96 % 6.61 C
1167 07-11-2018 01:10:00 7 C 96 % 6.41 C
1168 07-11-2018 01:15:00 6.9 C 96 % 6.31 C
1169 07-11-2018 01:20:00 6.9 C 96 % 6.31 C
1170 07-11-2018 01:25:00 6.8 C 96 % 6.21 C
1171 07-11-2018 01:30:00 6.7 C 96 % 6.11 C
1172 07-11-2018 01:35:00 6.6 C 96 % 6.01 C
1173 07-11-2018 01:40:00 6.5 C 96 % 5.91 C
1174 07-11-2018 01:45:00 6.5 C 96 % 5.91 C
1175 07-11-2018 01:50:00 6.4 C 96 % 5.81 C
Sensor: Nr:Datum:Temp:Feuchte:Taupunkt:
Aussen-T/F 1176 07-11-2018 01:55:00 6.4 C 96 % 5.81 C
1177 07-11-2018 02:00:00 6.4 C 96 % 5.81 C
1178 07-11-2018 02:05:00 6.4 C 96 % 5.81 C
1179 07-11-2018 02:10:00 6.4 C 97 % 5.96 C
1180 07-11-2018 02:15:00 6.3 C 96 % 5.71 C
1181 07-11-2018 02:20:00 6.3 C 96 % 5.71 C
1182 07-11-2018 02:25:00 6.2 C 96 % 5.61 C
1183 07-11-2018 02:30:00 6.2 C 96 % 5.61 C
1184 07-11-2018 02:35:00 6.2 C 96 % 5.61 C
1185 07-11-2018 02:40:00 6.2 C 96 % 5.61 C
1186 07-11-2018 02:45:00 6.3 C 97 % 5.86 C
1187 07-11-2018 02:50:00 6.3 C 97 % 5.86 C
1188 07-11-2018 02:55:00 6.2 C 96 % 5.61 C
1189 07-11-2018 03:00:00 6.1 C 96 % 5.51 C
1190 07-11-2018 03:05:00 5.9 C 96 % 5.31 C
1191 07-11-2018 03:10:00 5.9 C 97 % 5.46 C
1192 07-11-2018 03:15:00 6 C 97 % 5.56 C
1193 07-11-2018 03:20:00 6.1 C 97 % 5.66 C
1194 07-11-2018 03:25:00 6.2 C 97 % 5.76 C
1195 07-11-2018 03:30:00 6.2 C 97 % 5.76 C
1196 07-11-2018 03:35:00 6.1 C 97 % 5.66 C
1197 07-11-2018 03:40:00 6.1 C 97 % 5.66 C
1198 07-11-2018 03:45:00 6.1 C 97 % 5.66 C
1199 07-11-2018 03:50:00 6.2 C 97 % 5.76 C
1200 07-11-2018 03:55:00 6.2 C 97 % 5.76 C
Sensor: Nr:Datum:Temp:Feuchte:Taupunkt:
Aussen-T/F 1201 07-11-2018 04:00:00 6.3 C 97 % 5.86 C
1202 07-11-2018 04:05:00 6.5 C 97 % 6.06 C
1203 07-11-2018 04:10:00 6.6 C 97 % 6.16 C
1204 07-11-2018 04:15:00 6.6 C 97 % 6.16 C
1205 07-11-2018 04:20:00 6.6 C 97 % 6.16 C
1206 07-11-2018 04:25:00 6.5 C 97 % 6.06 C
1207 07-11-2018 04:30:00 6.4 C 97 % 5.96 C
1208 07-11-2018 04:35:00 6.2 C 97 % 5.76 C
1209 07-11-2018 04:40:00 6 C 97 % 5.56 C
1210 07-11-2018 04:45:00 5.8 C 96 % 5.21 C
1211 07-11-2018 04:50:00 5.7 C 97 % 5.26 C
1212 07-11-2018 04:55:00 5.7 C 97 % 5.26 C
1213 07-11-2018 05:00:00 5.7 C 97 % 5.26 C
1214 07-11-2018 05:05:00 5.7 C 97 % 5.26 C
1215 07-11-2018 05:10:00 5.6 C 97 % 5.16 C
1216 07-11-2018 05:15:00 5.6 C 97 % 5.16 C
1217 07-11-2018 05:20:00 5.6 C 97 % 5.16 C
1218 07-11-2018 05:25:00 5.6 C 97 % 5.16 C
1219 07-11-2018 05:30:00 5.5 C 97 % 5.06 C
1220 07-11-2018 05:35:00 5.3 C 97 % 4.86 C
1221 07-11-2018 05:40:00 5.3 C 97 % 4.86 C
1222 07-11-2018 05:45:00 5.3 C 97 % 4.86 C
1223 07-11-2018 05:50:00 5.3 C 97 % 4.86 C
1224 07-11-2018 05:55:00 5.2 C 97 % 4.76 C
1225 07-11-2018 06:00:00 5.1 C 97 % 4.66 C
Sensor: Nr:Datum:Temp:Feuchte:Taupunkt:
Aussen-T/F 1226 07-11-2018 06:05:00 5.1 C 97 % 4.66 C
1227 07-11-2018 06:10:00 5.1 C 97 % 4.66 C
1228 07-11-2018 06:15:00 4.9 C 97 % 4.46 C
1229 07-11-2018 06:20:00 4.9 C 97 % 4.46 C
1230 07-11-2018 06:25:00 5 C 97 % 4.56 C
1231 07-11-2018 06:30:00 4.9 C 97 % 4.46 C
1232 07-11-2018 06:35:00 4.9 C 97 % 4.46 C
1233 07-11-2018 06:40:00 4.9 C 97 % 4.46 C
1234 07-11-2018 06:45:00 4.8 C 97 % 4.37 C
1235 07-11-2018 06:50:00 4.8 C 97 % 4.37 C
1236 07-11-2018 06:55:00 4.7 C 97 % 4.27 C
1237 07-11-2018 07:00:00 4.7 C 97 % 4.27 C
1238 07-11-2018 07:05:00 4.7 C 97 % 4.27 C
1239 07-11-2018 07:10:00 4.7 C 97 % 4.27 C
1240 07-11-2018 07:15:00 4.6 C 97 % 4.17 C
1241 07-11-2018 07:20:00 4.5 C 97 % 4.07 C
1242 07-11-2018 07:25:00 4.4 C 97 % 3.97 C
1243 07-11-2018 07:30:00 4.6 C 97 % 4.17 C
1244 07-11-2018 07:35:00 4.7 C 97 % 4.27 C
1245 07-11-2018 07:40:00 4.8 C 97 % 4.37 C
1246 07-11-2018 07:45:00 4.8 C 97 % 4.37 C
1247 07-11-2018 07:50:00 4.7 C 97 % 4.27 C
1248 07-11-2018 07:55:00 4.7 C 97 % 4.27 C
1249 07-11-2018 08:00:00 4.8 C 97 % 4.37 C
1250 07-11-2018 08:05:00 4.9 C 97 % 4.46 C
Sensor: Nr:Datum:Temp:Feuchte:Taupunkt:
Aussen-T/F 1251 07-11-2018 08:10:00 4.9 C 97 % 4.46 C
1252 07-11-2018 08:15:00 5 C 97 % 4.56 C
1253 07-11-2018 08:20:00 5 C 97 % 4.56 C
1254 07-11-2018 08:25:00 5 C 97 % 4.56 C
1255 07-11-2018 08:30:00 5.1 C 97 % 4.66 C
1256 07-11-2018 08:35:00 5.1 C 97 % 4.66 C
1257 07-11-2018 08:40:00 5.1 C 97 % 4.66 C
1258 07-11-2018 08:45:00 5.1 C 97 % 4.66 C
1259 07-11-2018 08:50:00 5.2 C 97 % 4.76 C
1260 07-11-2018 08:55:00 5.2 C 97 % 4.76 C
1261 07-11-2018 09:00:00 5.3 C 97 % 4.86 C
1262 07-11-2018 09:05:00 5.5 C 97 % 5.06 C
1263 07-11-2018 09:10:00 5.8 C 97 % 5.36 C
1264 07-11-2018 09:15:00 5.9 C 97 % 5.46 C
1265 07-11-2018 09:20:00 6.1 C 98 % 5.81 C
1266 07-11-2018 09:25:00 6.1 C 98 % 5.81 C
1267 07-11-2018 09:30:00 6.2 C 97 % 5.76 C
1268 07-11-2018 09:35:00 6.3 C 98 % 6.01 C
1269 07-11-2018 09:40:00 6.5 C 98 % 6.21 C
1270 07-11-2018 09:45:00 6.7 C 98 % 6.41 C
1271 07-11-2018 09:50:00 6.9 C 98 % 6.61 C
1272 07-11-2018 09:55:00 7.1 C 98 % 6.81 C
1273 07-11-2018 10:00:00 7.2 C 98 % 6.91 C
1274 07-11-2018 10:05:00 7.4 C 98 % 7.11 C
1275 07-11-2018 10:10:00 7.6 C 98 % 7.3 C
Sensor: Nr:Datum:Temp:Feuchte:Taupunkt:
Aussen-T/F 1276 07-11-2018 10:15:00 7.7 C 98 % 7.4 C
1277 07-11-2018 10:20:00 7.7 C 98 % 7.4 C
1278 07-11-2018 10:25:00 7.8 C 98 % 7.5 C
1279 07-11-2018 10:30:00 7.9 C 98 % 7.6 C
1280 07-11-2018 10:35:00 8.1 C 98 % 7.8 C
1281 07-11-2018 10:40:00 8.2 C 98 % 7.9 C
1282 07-11-2018 10:45:00 8.4 C 98 % 8.1 C
1283 07-11-2018 10:50:00 8.6 C 98 % 8.3 C
1284 07-11-2018 10:55:00 8.8 C 98 % 8.5 C
1285 07-11-2018 11:00:00 8.9 C 98 % 8.6 C
1286 07-11-2018 11:05:00 8.9 C 98 % 8.6 C
1287 07-11-2018 11:10:00 9.1 C 98 % 8.8 C
1288 07-11-2018 11:15:00 9.2 C 98 % 8.9 C
1289 07-11-2018 11:20:00 9.4 C 98 % 9.1 C
1290 07-11-2018 11:25:00 9.6 C 98 % 9.3 C
1291 07-11-2018 11:30:00 9.8 C 98 % 9.5 C
1292 07-11-2018 11:35:00 9.9 C 98 % 9.6 C
1293 07-11-2018 11:40:00 10.1 C 98 % 9.8 C
1294 07-11-2018 11:45:00 10.1 C 98 % 9.8 C
1295 07-11-2018 11:50:00 10.2 C 98 % 9.9 C
1296 07-11-2018 11:55:00 10.2 C 98 % 9.9 C
1297 07-11-2018 12:00:00 10.3 C 98 % 10 C
1298 07-11-2018 12:05:00 10.3 C 98 % 10 C
1299 07-11-2018 12:10:00 10.4 C 98 % 10.1 C
1300 07-11-2018 12:15:00 10.5 C 98 % 10.2 C
Sensor: Nr:Datum:Temp:Feuchte:Taupunkt:
Aussen-T/F 1301 07-11-2018 12:20:00 10.6 C 98 % 10.3 C
1302 07-11-2018 12:25:00 10.7 C 98 % 10.4 C
1303 07-11-2018 12:30:00 10.9 C 98 % 10.6 C
1304 07-11-2018 12:35:00 11.1 C 97 % 10.64 C
1305 07-11-2018 12:40:00 11.3 C 97 % 10.84 C
1306 07-11-2018 12:45:00 11.4 C 96 % 10.79 C
1307 07-11-2018 12:50:00 11.7 C 91 % 10.28 C
1308 07-11-2018 12:55:00 12.1 C 91 % 10.68 C
1309 07-11-2018 13:00:00 12.3 C 89 % 10.54 C
1310 07-11-2018 13:05:00 12.6 C 85 % 10.15 C
1311 07-11-2018 13:10:00 12.9 C 85 % 10.44 C
1312 07-11-2018 13:15:00 13.2 C 84 % 10.56 C
1313 07-11-2018 13:20:00 13.4 C 83 % 10.57 C
1314 07-11-2018 13:25:00 13.6 C 80 % 10.22 C
1315 07-11-2018 13:30:00 13.9 C 78 % 10.13 C
1316 07-11-2018 13:35:00 14.1 C 80 % 10.71 C
1317 07-11-2018 13:40:00 14.3 C 79 % 10.71 C
1318 07-11-2018 13:45:00 14.4 C 82 % 11.37 C
1319 07-11-2018 13:50:00 14.4 C 82 % 11.37 C
1320 07-11-2018 13:55:00 14.5 C 82 % 11.47 C
1321 07-11-2018 14:00:00 14.4 C 80 % 11 C
1322 07-11-2018 14:05:00 14.7 C 78 % 10.91 C
1323 07-11-2018 14:10:00 14.9 C 80 % 11.48 C
1324 07-11-2018 14:15:00 14.9 C 79 % 11.29 C
1325 07-11-2018 14:20:00 14.9 C 76 % 10.71 C
Sensor: Nr:Datum:Temp:Feuchte:Taupunkt:
Aussen-T/F 1326 07-11-2018 14:25:00 15.1 C 76 % 10.9 C
1327 07-11-2018 14:30:00 15.2 C 73 % 10.4 C
1328 07-11-2018 14:35:00 15.4 C 74 % 10.79 C
1329 07-11-2018 14:40:00 15.5 C 76 % 11.29 C
1330 07-11-2018 14:45:00 15.3 C 71 % 10.08 C
1331 07-11-2018 14:50:00 15.3 C 74 % 10.7 C
1332 07-11-2018 14:55:00 15.1 C 74 % 10.5 C
1333 07-11-2018 15:00:00 14.9 C 76 % 10.71 C
1334 07-11-2018 15:05:00 14.7 C 78 % 10.91 C
1335 07-11-2018 15:10:00 14.5 C 79 % 10.91 C
1336 07-11-2018 15:15:00 14.3 C 79 % 10.71 C
1337 07-11-2018 15:20:00 14.1 C 80 % 10.71 C
1338 07-11-2018 15:25:00 13.9 C 81 % 10.7 C
1339 07-11-2018 15:30:00 13.7 C 81 % 10.5 C
1340 07-11-2018 15:35:00 13.6 C 81 % 10.4 C
1341 07-11-2018 15:40:00 13.5 C 82 % 10.49 C
1342 07-11-2018 15:45:00 13.4 C 82 % 10.39 C
1343 07-11-2018 15:50:00 13.3 C 83 % 10.48 C
1344 07-11-2018 15:55:00 13.2 C 83 % 10.38 C
1345 07-11-2018 16:00:00 13.2 C 84 % 10.56 C
1346 07-11-2018 16:05:00 13.1 C 83 % 10.28 C
1347 07-11-2018 16:10:00 13 C 83 % 10.18 C
1348 07-11-2018 16:15:00 12.9 C 84 % 10.26 C
1349 07-11-2018 16:20:00 12.8 C 84 % 10.17 C
1350 07-11-2018 16:25:00 12.8 C 84 % 10.17 C
Sensor: Nr:Datum:Temp:Feuchte:Taupunkt:
Aussen-T/F 1351 07-11-2018 16:30:00 12.7 C 85 % 10.25 C
1352 07-11-2018 16:35:00 12.6 C 85 % 10.15 C
1353 07-11-2018 16:40:00 12.5 C 86 % 10.22 C
1354 07-11-2018 16:45:00 12.4 C 86 % 10.13 C
1355 07-11-2018 16:50:00 12.4 C 86 % 10.13 C
1356 07-11-2018 16:55:00 12.4 C 87 % 10.3 C
1357 07-11-2018 17:00:00 12.3 C 87 % 10.2 C
1358 07-11-2018 17:05:00 12.3 C 87 % 10.2 C
1359 07-11-2018 17:10:00 12.3 C 87 % 10.2 C
1360 07-11-2018 17:15:00 12.3 C 87 % 10.2 C
1361 07-11-2018 17:20:00 12.3 C 88 % 10.37 C
1362 07-11-2018 17:25:00 12.2 C 88 % 10.27 C
1363 07-11-2018 17:30:00 12.2 C 88 % 10.27 C
1364 07-11-2018 17:35:00 12.2 C 88 % 10.27 C
1365 07-11-2018 17:40:00 12.2 C 88 % 10.27 C
1366 07-11-2018 17:45:00 12.1 C 89 % 10.34 C
1367 07-11-2018 17:50:00 12.1 C 89 % 10.34 C
1368 07-11-2018 17:55:00 12.1 C 89 % 10.34 C
1369 07-11-2018 18:00:00 12.1 C 89 % 10.34 C
1370 07-11-2018 18:05:00 12 C 89 % 10.25 C
1371 07-11-2018 18:10:00 12 C 89 % 10.25 C
1372 07-11-2018 18:15:00 11.9 C 89 % 10.15 C
1373 07-11-2018 18:20:00 11.9 C 89 % 10.15 C
1374 07-11-2018 18:25:00 11.9 C 89 % 10.15 C
1375 07-11-2018 18:30:00 11.9 C 89 % 10.15 C
Sensor: Nr:Datum:Temp:Feuchte:Taupunkt:
Aussen-T/F 1376 07-11-2018 18:35:00 11.8 C 88 % 9.88 C
1377 07-11-2018 18:40:00 11.8 C 88 % 9.88 C
1378 07-11-2018 18:45:00 11.8 C 88 % 9.88 C
1379 07-11-2018 18:50:00 11.9 C 88 % 9.98 C
1380 07-11-2018 18:55:00 11.9 C 88 % 9.98 C
1381 07-11-2018 19:00:00 11.9 C 88 % 9.98 C
1382 07-11-2018 19:05:00 11.8 C 88 % 9.88 C
1383 07-11-2018 19:10:00 11.8 C 87 % 9.71 C
1384 07-11-2018 19:15:00 11.8 C 88 % 9.88 C
1385 07-11-2018 19:20:00 11.8 C 88 % 9.88 C
1386 07-11-2018 19:25:00 11.8 C 88 % 9.88 C
1387 07-11-2018 19:30:00 11.8 C 88 % 9.88 C
1388 07-11-2018 19:35:00 11.9 C 88 % 9.98 C
1389 07-11-2018 19:40:00 11.9 C 88 % 9.98 C
1390 07-11-2018 19:45:00 11.9 C 88 % 9.98 C
1391 07-11-2018 19:50:00 11.9 C 89 % 10.15 C
1392 07-11-2018 19:55:00 11.9 C 89 % 10.15 C
1393 07-11-2018 20:00:00 11.9 C 90 % 10.31 C
1394 07-11-2018 20:05:00 11.8 C 90 % 10.21 C
1395 07-11-2018 20:10:00 11.8 C 90 % 10.21 C
1396 07-11-2018 20:15:00 11.7 C 91 % 10.28 C
1397 07-11-2018 20:20:00 11.7 C 91 % 10.28 C
1398 07-11-2018 20:25:00 11.6 C 91 % 10.18 C
1399 07-11-2018 20:30:00 11.6 C 91 % 10.18 C
1400 07-11-2018 20:35:00 11.5 C 92 % 10.25 C
Sensor: Nr:Datum:Temp:Feuchte:Taupunkt:
Aussen-T/F 1401 07-11-2018 20:40:00 11.4 C 92 % 10.15 C
1402 07-11-2018 20:45:00 11.4 C 92 % 10.15 C
1403 07-11-2018 20:50:00 11.3 C 92 % 10.05 C
1404 07-11-2018 20:55:00 11.3 C 92 % 10.05 C
1405 07-11-2018 21:00:00 11.2 C 92 % 9.95 C
1406 07-11-2018 21:05:00 11.2 C 92 % 9.95 C
1407 07-11-2018 21:10:00 11.2 C 92 % 9.95 C
1408 07-11-2018 21:15:00 11.2 C 92 % 9.95 C
1409 07-11-2018 21:20:00 11.2 C 92 % 9.95 C
1410 07-11-2018 21:25:00 11.2 C 92 % 9.95 C
1411 07-11-2018 21:30:00 11.2 C 92 % 9.95 C
1412 07-11-2018 21:35:00 11.1 C 92 % 9.85 C
1413 07-11-2018 21:40:00 11.1 C 92 % 9.85 C
1414 07-11-2018 21:45:00 11.1 C 93 % 10.01 C
1415 07-11-2018 21:50:00 11.1 C 93 % 10.01 C
1416 07-11-2018 21:55:00 11.1 C 93 % 10.01 C
1417 07-11-2018 22:00:00 11.1 C 93 % 10.01 C
1418 07-11-2018 22:05:00 11.1 C 93 % 10.01 C
1419 07-11-2018 22:10:00 11.1 C 93 % 10.01 C
1420 07-11-2018 22:15:00 11.1 C 93 % 10.01 C
1421 07-11-2018 22:20:00 11.1 C 93 % 10.01 C
1422 07-11-2018 22:25:00 11.1 C 93 % 10.01 C
1423 07-11-2018 22:30:00 11.1 C 93 % 10.01 C
1424 07-11-2018 22:35:00 11.1 C 93 % 10.01 C
1425 07-11-2018 22:40:00 11.1 C 93 % 10.01 C
Sensor: Nr:Datum:Temp:Feuchte:Taupunkt:
Aussen-T/F 1426 07-11-2018 22:45:00 11.1 C 93 % 10.01 C
1427 07-11-2018 22:50:00 11.1 C 93 % 10.01 C
1428 07-11-2018 22:55:00 11.1 C 93 % 10.01 C
1429 07-11-2018 23:00:00 11.1 C 93 % 10.01 C
1430 07-11-2018 23:05:00 11 C 93 % 9.91 C
1431 07-11-2018 23:10:00 11 C 93 % 9.91 C
1432 07-11-2018 23:15:00 11 C 93 % 9.91 C
1433 07-11-2018 23:20:00 11 C 93 % 9.91 C
1434 07-11-2018 23:25:00 10.9 C 93 % 9.81 C
1435 07-11-2018 23:30:00 10.9 C 93 % 9.81 C
1436 07-11-2018 23:35:00 10.9 C 93 % 9.81 C
1437 07-11-2018 23:40:00 10.9 C 93 % 9.81 C
1438 07-11-2018 23:45:00 10.9 C 93 % 9.81 C
1439 07-11-2018 23:50:00 10.8 C 93 % 9.71 C
1440 07-11-2018 23:55:00 10.8 C 93 % 9.71 C

Legende:
   Min
   Max


Maximal/Minimal-Werte vom 03.11.2018 - 07.11.2018

Sensor Min Max Avg
Temp
(Aussen-T/F)
2.2 °C
03-11-2018  03:20:00
15.5 °C
07-11-2018  14:40:00
7.7 °C
Feuchte
(Aussen-T/F)
71 %
07-11-2018  14:45:00
98 %
06-11-2018  09:35:00
94.38 %
Taupunkt
(Aussen-T/F)
1.63 C
03-11-2018  03:20:00
11.7 C
06-11-2018  15:10:00
6.82 C

Die Daten stammen von einer Davis Vantage Pro 2 Wetter-Station und werden unter Linux mit der Software wview2wettercgi und aufbereitet. Alle Angaben erfolgen ohne Gewähr für ihre Vollständigkeit oder Richtigkeit.
Kontakt: Rainer Krienke krienke@uni-koblenz.de . Meine Webseiten an der Uni Koblenz oder privat.
Version: $Revision: 0.78 $